Data for 04/04/2011

Time Sea-Level Adjusted Pressure Absolute Pressure Temperature Relative Humidity Dew Point Precipitation   
(mb) (inHg) (mb) (inHg) (C) (F) (%) (C) (F) (mm) (in)
00:01 1023 30.21 852 25.16 -2.2 28 73 -6.4 20.4 -1.794 -0.071
00:02 1023 30.21 852 25.16 -2.2 28 74 -6.2 20.8 -1.845 -0.073
00:03 1023 30.21 852 25.16 -2.3 27.9 74 -6.2 20.8 -1.857 -0.073
00:04 1023 30.21 852 25.16 -2.3 27.9 74 -6.2 20.8 -1.834 -0.072
00:05 1023 30.21 852 25.16 -2.2 28 74 -6.3 20.7 -1.812 -0.071
00:06 1023 30.21 852 25.16 -2.2 28 74 -6.3 20.7 -1.795 -0.071
00:07 1023 30.21 852 25.16 -2.2 28.1 75 -6.1 21 -1.773 -0.07
00:08 1023 30.21 852 25.16 -2.2 28 76 -5.9 21.3 -1.756 -0.069
00:09 1023 30.21 852 25.16 -2.2 28.1 77 -5.7 21.7 -1.756 -0.069
00:10 1023 30.21 852 25.16 -2.2 28.1 75 -6.1 21.1 -1.751 -0.069
00:11 1023 30.21 852 25.16 -2.2 28.1 74 -6.2 20.8 -1.729 -0.068
00:12 1023 30.21 852 25.16 -2.1 28.2 75 -6 21.2 -1.751 -0.069
00:13 1023 30.21 852 25.16 -2.1 28.2 75 -6 21.2 -1.729 -0.068
00:14 1023 30.21 852 25.16 -2.1 28.1 74 -6.2 20.9 -1.712 -0.067
00:15 1023 30.21 852 25.16 -2.1 28.2 75 -6 21.2 -1.735 -0.068
00:16 1023 30.21 852 25.16 -2.2 28.1 75 -6 21.3 -1.701 -0.067
00:17 1023 30.21 852 25.16 -2.1 28.2 74 -6.1 21 -1.752 -0.069
00:18 1023 30.21 852 25.16 -2.1 28.2 73 -6.3 20.7 -1.718 -0.068
00:19 1023 30.21 852 25.16 -2.1 28.2 74 -6.1 21.1 -1.718 -0.068
00:20 1023 30.21 852 25.16 -2.1 28.2 74 -6.1 21.1 -1.701 -0.067
00:21 1023 30.21 852 25.16 -2.1 28.2 74 -6.2 20.9 -1.701 -0.067
00:22 1023 30.21 852 25.16 -2.1 28.1 74 -6.2 20.8 -1.724 -0.068
00:23 1023 30.21 852 25.16 -2.2 28.1 74 -6.2 20.9 -1.724 -0.068
00:24 1023 30.21 852 25.16 -2.2 28.1 75 -6.1 21.1 -1.747 -0.069
00:25 1023 30.21 852 25.16 -2.2 28 76 -5.9 21.4 -1.741 -0.069
00:26 1023 30.21 852 25.16 -2.2 28 76 -5.8 21.5 -1.781 -0.07
00:27 1023 30.21 852 25.16 -2.2 28 76 -5.8 21.5 -1.787 -0.07
00:28 1023 30.21 852 25.16 -2.2 28 77 -5.7 21.8 -1.843 -0.073
00:29 1023 30.21 852 25.16 -2.3 27.9 78 -5.7 21.8 -1.855 -0.073
00:30 1023 30.21 852 25.16 -2.3 27.9 78 -5.6 21.8 -1.832 -0.072
00:31 1023 30.21 852 25.16 -2.3 27.9 78 -5.6 21.9 -1.844 -0.073
00:32 1023 30.21 852 25.16 -2.3 27.9 78 -5.6 22 -1.832 -0.072
00:33 1023 30.21 852 25.16 -2.3 27.9 78 -5.6 21.9 -1.861 -0.073
00:34 1023 30.21 852 25.16 -2.3 27.9 79 -5.5 22.1 -1.81 -0.071
00:35 1023 30.21 852 25.16 -2.2 28 78 -5.5 22.1 -1.832 -0.072
00:36 1023 30.21 852 25.16 -2.2 28 78 -5.5 22 -1.827 -0.072
00:37 1023 30.21 852 25.16 -2.2 28.1 77 -5.6 21.9 -1.798 -0.071
00:38 1023 30.21 852 25.16 -2.1 28.2 78 -5.4 22.2 -1.691 -0.067
00:39 1023 30.21 852 25.16 -2.1 28.2 79 -5.3 22.4 -1.674 -0.066
00:40 1023 30.21 852 25.16 -2.1 28.2 79 -5.2 22.6 -1.668 -0.066
00:41 1023 30.21 852 25.16 -2.1 28.2 79 -5.3 22.4 -1.674 -0.066
00:42 1023 30.21 852 25.16 -2.1 28.2 78 -5.4 22.3 -1.679 -0.066
00:43 1023 30.21 852 25.16 -2.1 28.2 78 -5.4 22.2 -1.674 -0.066
00:44 1023 30.21 852 25.16 -2.1 28.1 78 -5.4 22.2 -1.697 -0.067
00:45 1023 30.21 852 25.16 -2.1 28.2 79 -5.3 22.5 -1.68 -0.066
00:46 1023 30.21 852 25.16 -2.1 28.2 80 -5.1 22.8 -1.651 -0.065
00:47 1023 30.21 852 25.16 -2.2 28 80 -5.3 22.5 -1.742 -0.069
00:48 1023 30.21 852 25.16 -2.2 28 80 -5.2 22.7 -1.793 -0.071
00:49 1023 30.21 852 25.16 -2.3 27.9 81 -5.1 22.8 -1.81 -0.071
00:50 1023 30.21 852 25.16 -2.3 27.8 81 -5.1 22.8 -1.833 -0.072
00:51 1023 30.21 852 25.16 -2.3 27.8 82 -5.1 22.9 -1.872 -0.074
00:52 1023 30.21 852 25.16 -2.3 27.8 82 -5 23 -1.906 -0.075
00:53 1023 30.21 852 25.16 -2.4 27.7 82 -5.1 22.8 -1.935 -0.076
00:54 1023 30.21 852 25.16 -2.4 27.7 81 -5.2 22.6 -1.986 -0.078
00:55 1023 30.21 852 25.16 -2.4 27.7 80 -5.4 22.3 -1.991 -0.078
00:56 1023 30.21 852 25.16 -2.4 27.7 80 -5.4 22.3 -1.98 -0.078
00:57 1023 30.21 852 25.16 -2.4 27.7 80 -5.5 22.2 -1.98 -0.078
00:58 1023 30.21 852 25.16 -2.4 27.6 79 -5.7 21.8 -2.014 -0.079
00:59 1023 30.21 852 25.16 -2.5 27.6 79 -5.7 21.8 -2.014 -0.079
01:00 1023 30.21 852 25.16 -2.5 27.6 79 -5.6 21.9 -2.031 -0.08
01:01 1023 30.21 852 25.16 -2.5 27.5 79 -5.6 21.9 -2.082 -0.082
01:02 1023 30.21 852 25.16 -2.5 27.5 79 -5.7 21.8 -2.11 -0.083
01:03 1023 30.21 852 25.16 -2.5 27.4 79 -5.7 21.8 -2.156 -0.085
01:04 1023 30.21 852 25.16 -2.6 27.3 79 -5.8 21.6 -2.195 -0.086
01:05 1023 30.21 852 25.16 -2.6 27.3 79 -5.8 21.6 -2.207 -0.087
01:06 1023 30.21 852 25.16 -2.6 27.3 80 -5.7 21.7 -2.218 -0.087
01:07 1023 30.21 852 25.16 -2.7 27.2 80 -5.7 21.7 -2.235 -0.088
01:08 1023 30.21 852 25.16 -2.7 27.1 80 -5.8 21.6 -2.28 -0.09
01:09 1023 30.21 852 25.16 -2.7 27.1 80 -5.8 21.6 -2.337 -0.092
01:10 1023 30.21 852 25.16 -2.8 27 79 -5.9 21.5 -2.331 -0.092
01:11 1023 30.21 852 25.16 -2.8 27 80 -5.9 21.4 -2.365 -0.093
01:12 1023 30.21 852 25.16 -2.8 26.9 79 -5.9 21.4 -2.428 -0.096
01:13 1023 30.21 852 25.16 -2.8 26.9 80 -5.9 21.4 -2.439 -0.096
01:14 1023 30.21 852 25.16 -2.9 26.8 80 -5.9 21.3 -2.462 -0.097
01:15 1023 30.21 852 25.16 -2.9 26.7 80 -5.9 21.3 -2.518 -0.099
01:16 1023 30.21 852 25.16 -3 26.7 80 -5.9 21.4 -2.552 -0.1
01:17 1023 30.21 852 25.16 -3 26.6 81 -5.9 21.4 -2.586 -0.102
01:18 1023 30.21 852 25.16 -3.1 26.4 81 -6 21.3 -2.632 -0.104
01:19 1023 30.21 852 25.16 -3.1 26.3 81 -6 21.3 -2.677 -0.105
01:20 1023 30.21 852 25.16 -3.2 26.3 81 -5.9 21.3 -2.739 -0.108
01:21 1023 30.21 852 25.16 -3.2 26.3 81 -5.9 21.3 -2.773 -0.109
01:22 1023 30.21 852 25.16 -3.2 26.2 81 -6 21.2 -2.773 -0.109
01:23 1023 30.21 852 25.16 -3.2 26.2 80 -6.1 21 -2.785 -0.11
01:24 1023 30.21 852 25.16 -3.2 26.3 80 -6.2 20.9 -2.762 -0.109
01:25 1023 30.21 852 25.16 -3.1 26.3 80 -6.2 20.9 -2.739 -0.108
01:26 1023 30.21 852 25.16 -3.1 26.4 80 -6.2 20.9 -2.722 -0.107
01:27 1022 30.18 852 25.16 -3.2 26.3 79 -6.3 20.7 -2.745 -0.108
01:28 1022 30.18 852 25.16 -3.2 26.3 79 -6.3 20.7 -2.762 -0.109
01:29 1022 30.18 852 25.16 -3.2 26.2 79 -6.4 20.6 -2.779 -0.109
01:30 1022 30.18 852 25.16 -3.3 26.1 79 -6.4 20.5 -2.824 -0.111
01:31 1022 30.18 852 25.16 -3.3 26 79 -6.4 20.5 -2.875 -0.113
01:32 1022 30.18 852 25.16 -3.4 25.8 80 -6.4 20.5 -2.989 -0.118
01:33 1022 30.18 852 25.16 -3.6 25.6 80 -6.6 20.1 -3.091 -0.122
01:34 1022 30.18 852 25.16 -3.6 25.4 80 -6.7 20 -3.153 -0.124
01:35 1022 30.18 852 25.16 -3.7 25.4 80 -6.6 20.1 -3.238 -0.127
01:36 1022 30.18 852 25.16 -3.7 25.3 80 -6.7 19.9 -3.272 -0.129
01:37 1022 30.18 852 25.16 -3.7 25.3 80 -6.7 19.9 -3.363 -0.132
01:38 1022 30.18 852 25.16 -3.8 25.1 80 -6.8 19.8 -3.38 -0.133
01:39 1022 30.18 852 25.16 -3.8 25.1 80 -6.7 19.9 -3.38 -0.133
01:40 1022 30.18 852 25.16 -3.9 24.9 80 -6.8 19.7 -3.493 -0.138
01:41 1022 30.18 852 25.16 -4.1 24.7 80 -7 19.5 -3.64 -0.143
01:42 1022 30.18 852 25.16 -4.2 24.5 81 -6.9 19.5 -3.76 -0.148
01:43 1022 30.18 851 25.13 -4.3 24.3 81 -7 19.4 -3.839 -0.151
01:44 1022 30.18 851 25.13 -4.4 24.1 82 -7.1 19.3 -3.93 -0.155
01:45 1022 30.18 851 25.13 -4.5 23.9 82 -7.1 19.3 -4.049 -0.159
01:46 1022 30.18 851 25.13 -4.5 23.9 83 -7.1 19.3 -4.077 -0.161
01:47 1022 30.18 851 25.13 -4.6 23.8 83 -7.1 19.3 -4.122 -0.162
01:48 1022 30.18 851 25.13 -4.6 23.8 83 -7 19.3 -4.156 -0.164
01:49 1022 30.18 851 25.13 -4.7 23.6 83 -7.1 19.2 -4.236 -0.167
01:50 1022 30.18 851 25.13 -4.7 23.5 84 -7.1 19.2 -4.298 -0.169
01:51 1022 30.18 851 25.13 -4.8 23.4 84 -7.2 19.1 -4.355 -0.171
01:52 1022 30.18 851 25.13 -4.9 23.2 84 -7.2 19.1 -4.423 -0.174
01:53 1022 30.18 851 25.13 -5 23.1 84 -7.2 19 -4.508 -0.177
01:54 1022 30.18 851 25.13 -5 23 85 -7.2 19.1 -4.542 -0.179
01:55 1022 30.18 851 25.13 -5 23 85 -7.1 19.1 -4.581 -0.18
01:56 1022 30.18 851 25.13 -5 23 84 -7.2 19 -4.559 -0.179
01:57 1022 30.18 851 25.13 -5 23 85 -7.2 19 -4.632 -0.182
01:58 1022 30.18 851 25.13 -5.1 22.9 85 -7.3 18.9 -4.683 -0.184
01:59 1022 30.18 851 25.13 -5.1 22.7 84 -7.5 18.6 -4.706 -0.185
02:00 1022 30.18 851 25.13 -5.2 22.6 84 -7.6 18.4 -4.814 -0.19
02:01 1022 30.18 851 25.13 -5.4 22.4 84 -7.7 18.2 -4.921 -0.194
02:02 1022 30.18 851 25.13 -5.4 22.2 84 -7.7 18.1 -5.035 -0.198
02:03 1022 30.18 851 25.13 -5.5 22.1 85 -7.7 18.2 -5.097 -0.201
02:04 1022 30.18 851 25.13 -5.5 22.1 85 -7.7 18.2 -5.057 -0.199
02:05 1022 30.18 851 25.13 -5.4 22.2 85 -7.6 18.4 -5.035 -0.198
02:06 1022 30.18 851 25.13 -5.4 22.2 85 -7.6 18.3 -5.035 -0.198
02:07 1022 30.18 851 25.13 -5.4 22.2 84 -7.7 18.2 -5.029 -0.198
02:08 1022 30.18 851 25.13 -5.5 22.1 84 -7.8 18 -5.062 -0.199
02:09 1022 30.18 851 25.13 -5.6 22 84 -7.8 17.9 -5.164 -0.203
02:10 1022 30.18 851 25.13 -5.6 21.9 84 -7.8 17.9 -5.147 -0.203
02:11 1022 30.18 851 25.13 -5.7 21.8 85 -7.7 18.1 -5.214 -0.205
02:12 1022 30.18 851 25.13 -5.7 21.8 86 -7.7 18.1 -5.214 -0.205
02:13 1022 30.18 851 25.13 -5.6 21.9 86 -7.7 18.2 -5.197 -0.205
02:14 1022 30.18 851 25.13 -5.6 21.9 85 -7.7 18.1 -5.179 -0.204
02:15 1022 30.18 851 25.13 -5.6 21.9 85 -7.7 18.1 -5.207 -0.205
02:16 1022 30.18 851 25.13 -5.6 21.9 85 -7.7 18.1 -5.151 -0.203
02:17 1022 30.18 851 25.13 -5.5 22 85 -7.7 18.1 -5.15 -0.203
02:18 1022 30.18 851 25.13 -5.4 22.2 84 -7.7 18.1 -5.042 -0.199
02:19 1022 30.18 851 25.13 -5.3 22.4 83 -7.8 18 -4.974 -0.196
02:20 1022 30.18 851 25.13 -5.3 22.4 83 -7.8 17.9 -4.911 -0.193
02:21 1022 30.18 851 25.13 -5.2 22.6 82 -7.8 17.9 -4.814 -0.19
02:22 1022 30.18 851 25.13 -5.2 22.7 82 -7.8 17.9 -4.803 -0.189
02:23 1022 30.18 851 25.13 -5.2 22.7 82 -7.8 18 -4.75 -0.187
02:24 1022 30.18 851 25.13 -5.2 22.6 82 -7.8 18 -4.773 -0.188
02:25 1022 30.18 851 25.13 -5.2 22.6 82 -7.8 18 -4.773 -0.188
02:26 1022 30.18 851 25.13 -5.2 22.6 82 -7.8 17.9 -4.812 -0.189
02:27 1022 30.18 851 25.13 -5.2 22.6 82 -7.8 17.9 -4.789 -0.189
02:28 1022 30.18 851 25.13 -5.2 22.7 82 -7.9 17.9 -4.76 -0.187
02:29 1022 30.18 851 25.13 -5.1 22.8 81 -7.8 17.9 -4.737 -0.186
02:30 1022 30.18 851 25.13 -5 22.9 81 -7.8 17.9 -4.68 -0.184
02:31 1022 30.18 851 25.13 -5 22.9 81 -7.9 17.8 -4.652 -0.183
02:32 1022 30.18 851 25.13 -5 23 81 -7.8 17.9 -4.617 -0.182
02:33 1022 30.18 851 25.13 -5 23 81 -7.8 17.9 -4.617 -0.182
02:34 1022 30.18 851 25.13 -5 23.1 80 -7.8 17.9 -4.555 -0.179
02:35 1022 30.18 851 25.13 -4.9 23.2 80 -7.8 17.9 -4.503 -0.177
02:36 1022 30.18 851 25.13 -4.8 23.4 79 -7.9 17.8 -4.367 -0.172
02:37 1022 30.18 851 25.13 -4.6 23.8 78 -7.8 17.9 -4.197 -0.165
02:38 1022 30.18 851 25.13 -4.4 24 78 -7.8 18 -4.055 -0.16
02:39 1022 30.18 851 25.13 -4.3 24.2 77 -7.7 18.1 -3.959 -0.156
02:40 1022 30.18 851 25.13 -4.3 24.3 78 -7.6 18.4 -3.902 -0.154
02:41 1022 30.18 851 25.13 -4.3 24.3 78 -7.6 18.4 -3.879 -0.153
02:42 1022 30.18 851 25.13 -4.3 24.3 78 -7.5 18.4 -3.862 -0.152
02:43 1022 30.18 851 25.13 -4.2 24.4 78 -7.5 18.5 -3.811 -0.15
02:44 1022 30.18 851 25.13 -4.1 24.6 77 -7.6 18.3 -3.709 -0.146
02:45 1022 30.18 851 25.13 -4 24.9 76 -7.6 18.4 -3.635 -0.143
02:46 1022 30.18 851 25.13 -3.9 25.1 77 -7.3 18.9 -3.516 -0.138
02:47 1022 30.18 851 25.13 -3.9 25 77 -7.4 18.7 -3.521 -0.139
02:48 1022 30.18 851 25.13 -3.9 24.9 77 -7.4 18.7 -3.561 -0.14
02:49 1022 30.18 851 25.13 -4.1 24.7 77 -7.6 18.4 -3.606 -0.142
02:50 1022 30.18 851 25.13 -4.1 24.7 77 -7.6 18.4 -3.68 -0.145
02:51 1022 30.18 851 25.13 -4 24.7 76 -7.7 18.1 -3.629 -0.143
02:52 1022 30.18 851 25.13 -4 24.8 75 -7.7 18.1 -3.6 -0.142
02:53 1022 30.18 851 25.13 -4 24.8 75 -7.7 18.1 -3.532 -0.139
02:54 1022 30.18 851 25.13 -4 24.9 75 -7.7 18.2 -3.532 -0.139
02:55 1022 30.18 851 25.13 -4 24.9 73 -8 17.5 -3.549 -0.14
02:56 1022 30.18 851 25.13 -3.9 24.9 73 -8.1 17.4 -3.532 -0.139
02:57 1022 30.18 851 25.13 -3.9 24.9 74 -7.9 17.8 -3.521 -0.139
02:58 1022 30.18 851 25.13 -3.9 24.9 72 -8.2 17.2 -3.555 -0.14
02:59 1022 30.18 851 25.13 -4 24.9 73 -8.1 17.5 -3.549 -0.14
03:00 1022 30.18 851 25.13 -4 24.8 73 -8.1 17.3 -3.555 -0.14
03:01 1022 30.18 851 25.13 -4 24.8 73 -8.1 17.4 -3.623 -0.143
03:02 1022 30.18 851 25.13 -4 24.8 72 -8.3 17 -3.583 -0.141
03:03 1022 30.18 851 25.13 -4 24.9 73 -8.1 17.5 -3.56 -0.14
03:04 1022 30.18 851 25.13 -4 24.8 73 -8.2 17.2 -3.583 -0.141
03:05 1022 30.18 851 25.13 -4 24.7 73 -8.2 17.3 -3.617 -0.142
03:06 1022 30.18 851 25.13 -4.1 24.7 74 -8 17.5 -3.634 -0.143
03:07 1022 30.18 851 25.13 -4.1 24.6 75 -7.9 17.7 -3.657 -0.144
03:08 1022 30.18 851 25.13 -4.1 24.6 75 -7.9 17.7 -3.742 -0.147
03:09 1022 30.18 851 25.13 -4.2 24.4 75 -8 17.7 -3.793 -0.149
03:10 1022 30.18 851 25.13 -4.3 24.3 75 -8.1 17.5 -3.855 -0.152
03:11 1022 30.18 851 25.13 -4.3 24.3 75 -8.1 17.5 -3.849 -0.152
03:12 1022 30.18 851 25.13 -4.3 24.2 76 -8 17.6 -3.906 -0.154
03:13 1022 30.18 851 25.13 -4.4 24.1 76 -8 17.6 -3.946 -0.155
03:14 1022 30.18 851 25.13 -4.4 24.1 76 -8 17.6 -3.991 -0.157
03:15 1022 30.18 851 25.13 -4.5 24 76 -8 17.6 -4.014 -0.158
03:16 1022 30.18 851 25.13 -4.5 24 76 -8 17.6 -4.042 -0.159
03:17 1022 30.18 851 25.13 -4.5 23.9 76 -8 17.5 -4.076 -0.16
03:18 1022 30.18 851 25.13 -4.5 23.8 77 -8 17.6 -4.138 -0.163
03:19 1022 30.18 851 25.13 -4.7 23.6 76 -8.3 17 -4.206 -0.166
03:20 1022 30.18 851 25.13 -4.7 23.5 76 -8.4 17 -4.303 -0.169
03:21 1022 30.18 851 25.13 -4.7 23.6 76 -8.3 17 -4.303 -0.169
03:22 1022 30.18 851 25.13 -4.7 23.6 75 -8.4 16.8 -4.263 -0.168
03:23 1022 30.18 851 25.13 -4.7 23.5 75 -8.5 16.7 -4.348 -0.171
03:24 1022 30.18 851 25.13 -4.8 23.4 75 -8.6 16.4 -4.382 -0.173
03:25 1022 30.18 851 25.13 -4.8 23.3 74 -8.7 16.3 -4.428 -0.174
03:26 1022 30.18 851 25.13 -4.9 23.1 75 -8.7 16.4 -4.569 -0.18
03:27 1022 30.18 851 25.13 -5 22.9 75 -8.8 16.1 -4.643 -0.183
03:28 1022 30.18 851 25.13 -5.1 22.8 75 -8.9 16 -4.688 -0.185
03:29 1022 30.18 851 25.13 -5.1 22.8 75 -8.9 15.9 -4.717 -0.186
03:30 1022 30.18 851 25.13 -5.1 22.8 75 -8.9 15.9 -4.762 -0.187
03:31 1022 30.18 851 25.13 -5.1 22.8 75 -8.9 16 -4.768 -0.188
03:32 1022 30.18 851 25.13 -5.2 22.7 75 -9 15.8 -4.711 -0.185
03:33 1022 30.18 851 25.13 -5 22.9 74 -9 15.8 -4.603 -0.181
03:34 1022 30.18 851 25.13 -5 23 75 -8.7 16.4 -4.518 -0.178
03:35 1022 30.18 851 25.13 -4.9 23.1 75 -8.7 16.3 -4.479 -0.176
03:36 1022 30.18 851 25.13 -4.9 23.1 75 -8.8 16.2 -4.478 -0.176
03:37 1022 30.18 851 25.13 -4.9 23.1 74 -8.8 16.1 -4.478 -0.176
03:38 1022 30.18 851 25.13 -4.9 23.1 74 -8.8 16.1 -4.496 -0.177
03:39 1022 30.18 851 25.13 -4.9 23.1 74 -8.8 16.2 -4.496 -0.177
03:40 1022 30.18 851 25.13 -5 23 75 -8.8 16.1 -4.581 -0.18
03:41 1022 30.18 851 25.13 -5.1 22.8 75 -8.9 16 -4.626 -0.182
03:42 1021 30.15 851 25.13 -5.2 22.7 75 -8.9 15.9 -4.705 -0.185
03:43 1021 30.15 851 25.13 -5.2 22.7 75 -8.9 16 -4.779 -0.188
03:44 1021 30.15 851 25.13 -5.2 22.6 75 -9 15.9 -4.819 -0.19
03:45 1022 30.18 851 25.13 -5.2 22.7 75 -9 15.8 -4.819 -0.19
03:46 1022 30.18 851 25.13 -5.1 22.8 74 -9.1 15.6 -4.824 -0.19
03:47 1022 30.18 851 25.13 -5.1 22.8 73 -9.1 15.6 -4.796 -0.189
03:48 1022 30.18 851 25.13 -5.1 22.8 73 -9.2 15.4 -4.802 -0.189
03:49 1022 30.18 851 25.13 -5.1 22.8 73 -9.2 15.5 -4.785 -0.188
03:50 1022 30.18 851 25.13 -5.1 22.9 73 -9.2 15.5 -4.734 -0.186
03:51 1021 30.15 851 25.13 -5 22.9 73 -9.2 15.5 -4.683 -0.184
03:52 1021 30.15 851 25.13 -5 22.9 73 -9.2 15.4 -4.705 -0.185
03:53 1021 30.15 851 25.13 -5 23 73 -9.2 15.5 -4.688 -0.185
03:54 1021 30.15 851 25.13 -5.1 22.9 73 -9.2 15.4 -4.728 -0.186
03:55 1021 30.15 851 25.13 -5.1 22.8 73 -9.2 15.4 -4.705 -0.185
03:56 1021 30.15 851 25.13 -5.1 22.8 73 -9.2 15.4 -4.711 -0.185
03:57 1021 30.15 851 25.13 -5.1 22.8 73 -9.2 15.4 -4.717 -0.186
03:58 1021 30.15 851 25.13 -5.1 22.8 73 -9.2 15.5 -4.711 -0.185
03:59 1022 30.18 851 25.13 -5 22.9 73 -9.1 15.5 -4.682 -0.184
04:00 1022 30.18 851 25.13 -5 22.9 73 -9.1 15.6 -4.647 -0.183
04:01 1022 30.18 851 25.13 -5 23 73 -9.2 15.5 -4.642 -0.183
04:02 1021 30.15 851 25.13 -5 23 73 -9.2 15.5 -4.613 -0.182
04:03 1021 30.15 851 25.13 -5 22.9 73 -9.2 15.5 -4.635 -0.182
04:04 1021 30.15 851 25.13 -5.1 22.9 73 -9.2 15.5 -4.624 -0.182
04:05 1021 30.15 851 25.13 -5.1 22.9 73 -9.2 15.5 -4.657 -0.183
04:06 1021 30.15 851 25.13 -5.1 22.9 73 -9.1 15.5 -4.657 -0.183
04:07 1021 30.15 851 25.13 -5.1 22.9 73 -9.1 15.6 -4.646 -0.183
04:08 1021 30.15 851 25.13 -5.1 22.9 73 -9.1 15.6 -4.606 -0.181
04:09 1021 30.15 851 25.13 -5.1 22.9 73 -9.2 15.5 -4.549 -0.179
04:10 1021 30.15 851 25.13 -5 22.9 73 -9.1 15.5 -4.583 -0.18
04:11 1021 30.15 851 25.13 -5 23 73 -9.1 15.6 -4.537 -0.179
04:12 1021 30.15 851 25.13 -4.9 23.1 73 -9.1 15.5 -4.474 -0.176
04:13 1021 30.15 851 25.13 -4.9 23.1 72 -9.3 15.3 -4.497 -0.177
04:14 1021 30.15 851 25.13 -5 23 72 -9.2 15.4 -4.548 -0.179
04:15 1021 30.15 851 25.13 -5.1 22.9 73 -9.2 15.4 -4.593 -0.181
04:16 1021 30.15 851 25.13 -5.1 22.9 73 -9.2 15.5 -4.644 -0.183
04:17 1021 30.15 851 25.13 -5.1 22.8 73 -9.2 15.5 -4.678 -0.184
04:18 1021 30.15 850 25.1 -5.1 22.8 73 -9.2 15.5 -4.7 -0.185
04:19 1021 30.15 850 25.1 -5.1 22.7 74 -9.1 15.6 -4.712 -0.186
04:20 1021 30.15 851 25.13 -5.2 22.6 73 -9.3 15.2 -4.785 -0.188
04:21 1021 30.15 851 25.13 -5.4 22.3 76 -9 15.8 -4.899 -0.193
04:22 1021 30.15 850 25.1 -5.4 22.3 77 -8.8 16.2 -4.978 -0.196
04:23 1021 30.15 850 25.1 -5.5 22.2 79 -8.5 16.6 -5.097 -0.201
04:24 1021 30.15 850 25.1 -5.5 22.2 78 -8.7 16.3 -5.091 -0.2
04:25 1021 30.15 850 25.1 -5.4 22.3 78 -8.6 16.5 -5.12 -0.202
04:26 1021 30.15 850 25.1 -5.4 22.2 78 -8.8 16.2 -5.176 -0.204
04:27 1021 30.15 850 25.1 -5.4 22.2 76 -9 15.7 -5.108 -0.201
04:28 1021 30.15 850 25.1 -5.2 22.6 74 -9.1 15.6 -4.932 -0.194
04:29 1021 30.15 850 25.1 -5.1 22.7 74 -9.1 15.7 -4.829 -0.19
04:30 1021 30.15 850 25.1 -5 23 73 -9 15.8 -4.665 -0.184
04:31 1021 30.15 850 25.1 -4.9 23.2 73 -9.1 15.6 -4.534 -0.179
04:32 1021 30.15 850 25.1 -4.8 23.3 72 -9.1 15.6 -4.437 -0.175
04:33 1021 30.15 850 25.1 -4.7 23.5 72 -9.1 15.7 -4.374 -0.172
04:34 1021 30.15 850 25.1 -4.7 23.5 72 -9.1 15.6 -4.335 -0.171
04:35 1021 30.15 850 25.1 -4.7 23.5 72 -9 15.7 -4.322 -0.17
04:36 1021 30.15 850 25.1 -4.8 23.4 73 -9 15.9 -4.334 -0.171
04:37 1021 30.15 850 25.1 -4.8 23.4 73 -9 15.8 -4.362 -0.172
04:38 1021 30.15 850 25.1 -4.8 23.4 72 -9.1 15.6 -4.401 -0.173
04:39 1021 30.15 850 25.1 -4.7 23.5 72 -8.9 15.9 -4.344 -0.171
04:40 1021 30.15 850 25.1 -4.7 23.5 72 -9.1 15.7 -4.361 -0.172
04:41 1021 30.15 850 25.1 -4.7 23.5 72 -8.9 15.9 -4.332 -0.171
04:42 1021 30.15 850 25.1 -4.7 23.5 74 -8.7 16.3 -4.247 -0.167
04:43 1021 30.15 850 25.1 -4.7 23.5 73 -8.8 16.2 -4.264 -0.168
04:44 1021 30.15 850 25.1 -4.7 23.5 73 -8.8 16.1 -4.321 -0.17
04:45 1021 30.15 850 25.1 -4.8 23.4 73 -8.9 15.9 -4.332 -0.171
04:46 1021 30.15 850 25.1 -4.8 23.3 73 -9 15.8 -4.411 -0.174
04:47 1021 30.15 850 25.1 -4.9 23.3 73 -9 15.8 -4.479 -0.176
04:48 1021 30.15 850 25.1 -5 23 73 -9 15.7 -4.542 -0.179
04:49 1021 30.15 850 25.1 -5 23 73 -9.1 15.6 -4.604 -0.181
04:50 1021 30.15 850 25.1 -5.1 22.9 74 -9.1 15.6 -4.643 -0.183
04:51 1021 30.15 850 25.1 -5 22.9 73 -9.1 15.6 -4.649 -0.183
04:52 1021 30.15 850 25.1 -5.1 22.9 73 -9.1 15.6 -4.632 -0.182
04:53 1021 30.15 850 25.1 -5.1 22.8 73 -9.2 15.5 -4.683 -0.184
04:54 1021 30.15 850 25.1 -5.1 22.8 74 -9.1 15.6 -4.711 -0.185
04:55 1021 30.15 850 25.1 -5.1 22.9 74 -9.1 15.6 -4.734 -0.186
04:56 1021 30.15 850 25.1 -5.1 22.9 73 -9.2 15.5 -4.722 -0.186
04:57 1021 30.15 850 25.1 -5 23 73 -9.2 15.4 -4.632 -0.182
04:58 1021 30.15 850 25.1 -5 23.1 73 -9.1 15.5 -4.598 -0.181
04:59 1021 30.15 850 25.1 -4.9 23.1 73 -9.1 15.6 -4.582 -0.18
05:00 1021 30.15 850 25.1 -4.9 23.1 73 -9.1 15.6 -4.57 -0.18
05:01 1021 30.15 850 25.1 -4.9 23.1 73 -9.1 15.7 -4.564 -0.18
05:02 1021 30.15 850 25.1 -5 23 74 -8.9 16 -4.587 -0.181
05:03 1021 30.15 850 25.1 -5.2 22.6 77 -8.7 16.3 -4.802 -0.189
05:04 1021 30.15 850 25.1 -5.6 22 79 -8.7 16.3 -5.149 -0.203
05:05 1021 30.15 850 25.1 -5.8 21.5 80 -8.7 16.3 -5.433 -0.214
05:06 1021 30.15 850 25.1 -6.1 21.1 82 -8.6 16.5 -5.608 -0.221
05:07 1021 30.15 850 25.1 -6.1 20.9 84 -8.5 16.7 -5.716 -0.225
05:08 1021 30.15 850 25.1 -6.1 20.9 85 -8.2 17.2 -5.653 -0.223
05:09 1021 30.15 850 25.1 -6.1 21.1 86 -8 17.6 -5.619 -0.221
05:10 1021 30.15 850 25.1 -5.9 21.3 86 -7.9 17.7 -5.484 -0.216
05:11 1021 30.15 850 25.1 -5.8 21.6 85 -7.8 17.9 -5.365 -0.211
05:12 1021 30.15 850 25.1 -5.6 21.8 85 -7.8 18 -5.303 -0.209
05:13 1021 30.15 850 25.1 -5.6 22 85 -7.8 18 -5.217 -0.205
05:14 1021 30.15 850 25.1 -5.5 22 85 -7.7 18.1 -5.132 -0.202
05:15 1021 30.15 850 25.1 -5.5 22.2 85 -7.7 18.2 -5.087 -0.2
05:16 1021 30.15 850 25.1 -5.4 22.2 84 -7.7 18.2 -5.065 -0.199
05:17 1021 30.15 850 25.1 -5.4 22.2 84 -7.7 18.2 -5.042 -0.199
05:18 1021 30.15 850 25.1 -5.5 22.2 84 -7.7 18.1 -5.093 -0.201
05:19 1021 30.15 850 25.1 -5.5 22 84 -7.8 17.9 -5.116 -0.201
05:20 1021 30.15 850 25.1 -5.6 22 84 -7.8 18 -5.139 -0.202
05:21 1021 30.15 850 25.1 -5.6 22 85 -7.8 18 -5.145 -0.203
05:22 1021 30.15 850 25.1 -5.5 22 85 -7.7 18.1 -5.195 -0.205
05:23 1021 30.15 850 25.1 -5.6 22 83 -8 17.7 -5.178 -0.204
05:24 1021 30.15 850 25.1 -5.7 21.7 84 -8.1 17.5 -5.325 -0.21
05:25 1021 30.15 850 25.1 -5.7 21.7 83 -8.1 17.4 -5.308 -0.209
05:26 1021 30.15 850 25.1 -5.8 21.6 82 -8.3 17 -5.336 -0.21
05:27 1021 30.15 850 25.1 -5.9 21.4 83 -8.4 16.9 -5.484 -0.216
05:28 1021 30.15 850 25.1 -6 21.1 83 -8.5 16.7 -5.598 -0.22
05:29 1021 30.15 850 25.1 -6.1 21 84 -8.4 16.8 -5.694 -0.224
05:30 1021 30.15 850 25.1 -6.1 21 84 -8.4 16.8 -5.689 -0.224
05:31 1021 30.15 850 25.1 -6 21.1 84 -8.4 16.9 -5.649 -0.222
05:32 1021 30.15 850 25.1 -6 21.2 83 -8.4 16.8 -5.576 -0.22
05:33 1021 30.15 850 25.1 -5.9 21.4 82 -8.5 16.8 -5.507 -0.217
05:34 1021 30.15 850 25.1 -5.9 21.3 82 -8.6 16.6 -5.479 -0.216
05:35 1021 30.15 850 25.1 -5.9 21.4 81 -8.6 16.5 -5.507 -0.217
05:36 1021 30.15 850 25.1 -5.9 21.4 82 -8.6 16.6 -5.524 -0.217
05:37 1021 30.15 850 25.1 -5.9 21.5 81 -8.6 16.6 -5.523 -0.217
05:38 1021 30.15 850 25.1 -5.9 21.3 81 -8.6 16.5 -5.523 -0.217
05:39 1021 30.15 850 25.1 -5.9 21.4 81 -8.6 16.5 -5.529 -0.218
05:40 1021 30.15 850 25.1 -5.9 21.4 80 -8.8 16.2 -5.489 -0.216
05:41 1021 30.15 850 25.1 -5.8 21.5 80 -8.8 16.2 -5.495 -0.216
05:42 1021 30.15 850 25.1 -5.8 21.5 80 -8.8 16.2 -5.46 -0.215
05:43 1021 30.15 850 25.1 -5.8 21.5 80 -8.8 16.2 -5.46 -0.215
05:44 1021 30.15 850 25.1 -5.9 21.4 80 -8.9 16 -5.489 -0.216
05:45 1021 30.15 850 25.1 -5.9 21.4 80 -8.8 16.1 -5.512 -0.217
05:46 1021 30.15 850 25.1 -5.9 21.4 80 -8.7 16.3 -5.535 -0.218
05:47 1021 30.15 850 25.1 -5.9 21.4 80 -8.7 16.3 -5.444 -0.214
05:48 1021 30.15 850 25.1 -5.8 21.5 80 -8.8 16.2 -5.415 -0.213
05:49 1021 30.15 850 25.1 -5.7 21.8 80 -8.7 16.4 -5.325 -0.21
05:50 1021 30.15 850 25.1 -5.7 21.8 79 -8.7 16.3 -5.319 -0.209
05:51 1021 30.15 850 25.1 -5.6 21.9 79 -8.7 16.4 -5.307 -0.209
05:52 1021 30.15 850 25.1 -5.7 21.8 80 -8.6 16.5 -5.267 -0.207
05:53 1021 30.15 850 25.1 -5.6 21.8 80 -8.5 16.7 -5.284 -0.208
05:54 1021 30.15 850 25.1 -5.6 21.9 82 -8.3 17.1 -5.256 -0.207
05:55 1021 30.15 850 25.1 -5.6 22 81 -8.3 17.1 -5.205 -0.205
05:56 1021 30.15 850 25.1 -5.5 22.1 80 -8.4 16.9 -5.131 -0.202
05:57 1021 30.15 850 25.1 -5.4 22.3 80 -8.3 17 -5.034 -0.198
05:58 1021 30.15 850 25.1 -5.4 22.4 80 -8.3 17.1 -4.961 -0.195
05:59 1021 30.15 850 25.1 -5.3 22.5 80 -8.3 17.1 -4.904 -0.193
06:00 1021 30.15 850 25.1 -5.2 22.6 80 -8.2 17.3 -4.858 -0.191
06:01 1021 30.15 850 25.1 -5.2 22.6 80 -8.1 17.4 -4.87 -0.192
06:02 1021 30.15 850 25.1 -5.2 22.6 81 -8 17.5 -4.864 -0.191
06:03 1021 30.15 850 25.1 -5.2 22.6 81 -7.9 17.7 -4.836 -0.19
06:04 1021 30.15 850 25.1 -5.2 22.6 82 -7.8 17.9 -4.858 -0.191
06:05 1021 30.15 850 25.1 -5.2 22.6 83 -7.7 18.2 -4.847 -0.191
06:06 1021 30.15 850 25.1 -5.2 22.6 83 -7.6 18.2 -4.841 -0.191
06:07 1021 30.15 850 25.1 -5.3 22.5 84 -7.6 18.3 -4.881 -0.192
06:08 1021 30.15 850 25.1 -5.3 22.5 84 -7.6 18.4 -4.858 -0.191
06:09 1021 30.15 850 25.1 -5.2 22.6 84 -7.5 18.6 -4.83 -0.19
06:10 1021 30.15 850 25.1 -5.2 22.6 84 -7.4 18.6 -4.796 -0.189
06:11 1020 30.12 850 25.1 -5.1 22.7 85 -7.3 18.8 -4.745 -0.187
06:12 1020 30.12 850 25.1 -5.1 22.8 84 -7.4 18.7 -4.688 -0.185
06:13 1020 30.12 850 25.1 -5.1 22.9 83 -7.5 18.6 -4.643 -0.183
06:14 1020 30.12 850 25.1 -5 23 83 -7.5 18.5 -4.569 -0.18
06:15 1020 30.12 850 25.1 -5 23.1 82 -7.6 18.4 -4.535 -0.179
06:16 1020 30.12 850 25.1 -4.9 23.2 83 -7.4 18.6 -4.501 -0.177
06:17 1020 30.12 850 25.1 -4.9 23.2 83 -7.4 18.6 -4.444 -0.175
06:18 1020 30.12 849 25.07 -4.8 23.3 83 -7.3 18.9 -4.382 -0.173
06:19 1020 30.12 849 25.07 -4.8 23.4 82 -7.4 18.7 -4.353 -0.171
06:20 1020 30.12 849 25.07 -4.8 23.4 82 -7.5 18.6 -4.342 -0.171
06:21 1020 30.12 849 25.07 -4.8 23.5 83 -7.3 18.9 -4.319 -0.17
06:22 1020 30.12 849 25.07 -4.7 23.5 82 -7.3 18.9 -4.308 -0.17
06:23 1020 30.12 849 25.07 -4.7 23.5 82 -7.3 18.9 -4.268 -0.168
06:24 1020 30.12 849 25.07 -4.7 23.6 83 -7.1 19.1 -4.24 -0.167
06:25 1020 30.12 849 25.07 -4.7 23.6 83 -7.2 19 -4.262 -0.168
06:26 1020 30.12 849 25.07 -4.7 23.6 82 -7.3 18.9 -4.228 -0.166
06:27 1020 30.12 849 25.07 -4.7 23.6 83 -7.2 19 -4.245 -0.167
06:28 1020 30.12 849 25.07 -4.6 23.6 81 -7.5 18.5 -4.211 -0.166
06:29 1020 30.12 849 25.07 -4.6 23.7 81 -7.4 18.8 -4.189 -0.165
06:30 1020 30.12 849 25.07 -4.6 23.7 82 -7.3 18.8 -4.223 -0.166
06:31 1020 30.12 849 25.07 -4.6 23.7 82 -7.2 19 -4.24 -0.167
06:32 1020 30.12 849 25.07 -4.7 23.6 83 -7.2 19 -4.251 -0.167
06:33 1020 30.12 849 25.07 -4.7 23.5 83 -7.2 19.1 -4.24 -0.167
06:34 1020 30.12 849 25.07 -4.7 23.5 81 -7.4 18.7 -4.285 -0.169
06:35 1020 30.12 849 25.07 -4.6 23.6 82 -7.3 18.9 -4.206 -0.166
06:36 1020 30.12 849 25.07 -4.6 23.7 82 -7.3 18.9 -4.183 -0.165
06:37 1020 30.12 849 25.07 -4.6 23.7 82 -7.2 19 -4.223 -0.166
06:38 1020 30.12 849 25.07 -4.7 23.6 83 -7.1 19.2 -4.275 -0.168
06:39 1020 30.12 849 25.07 -4.7 23.5 83 -7.2 19.1 -4.315 -0.17
06:40 1020 30.12 849 25.07 -4.8 23.4 83 -7.2 19.1 -4.315 -0.17
06:41 1020 30.12 849 25.07 -4.8 23.4 83 -7.2 19.1 -4.327 -0.17
06:42 1020 30.12 849 25.07 -4.8 23.4 83 -7.3 18.9 -4.321 -0.17
06:43 1020 30.12 849 25.07 -4.8 23.4 83 -7.2 19.1 -4.315 -0.17
06:44 1020 30.12 849 25.07 -4.7 23.5 83 -7.2 19.1 -4.316 -0.17
06:45 1020 30.12 849 25.07 -4.7 23.5 83 -7.2 19 -4.333 -0.171
06:46 1020 30.12 849 25.07 -4.7 23.5 81 -7.5 18.5 -4.305 -0.169
06:47 1020 30.12 849 25.07 -4.6 23.7 80 -7.5 18.5 -4.175 -0.164
06:48 1020 30.12 849 25.07 -4.6 23.8 80 -7.4 18.6 -4.073 -0.16
06:49 1020 30.12 849 25.07 -4.5 23.8 79 -7.6 18.4 -4.056 -0.16
06:50 1020 30.12 849 25.07 -4.5 24 79 -7.6 18.4 -4.028 -0.159
06:51 1020 30.12 849 25.07 -4.4 24.1 78 -7.7 18.1 -3.937 -0.155
06:52 1020 30.12 849 25.07 -4.3 24.2 77 -7.8 18 -3.886 -0.153
06:53 1020 30.12 849 25.07 -4.2 24.4 76 -7.9 17.7 -3.756 -0.148
06:54 1020 30.12 849 25.07 -4.1 24.6 79 -7.3 18.9 -3.66 -0.144
06:55 1020 30.12 849 25.07 -4.1 24.7 80 -7 19.4 -3.626 -0.143
06:56 1020 30.12 849 25.07 -4.1 24.6 80 -7 19.4 -3.638 -0.143
06:57 1020 30.12 849 25.07 -4.1 24.6 81 -6.9 19.5 -3.672 -0.145
06:58 1020 30.12 849 25.07 -4.1 24.6 82 -6.7 19.9 -3.706 -0.146
06:59 1020 30.12 849 25.07 -4.2 24.5 82 -6.8 19.7 -3.706 -0.146
07:00 1020 30.12 849 25.07 -4.2 24.5 80 -7.1 19.2 -3.774 -0.149
07:01 1020 30.12 849 25.07 -4.2 24.4 81 -7 19.4 -3.814 -0.15
07:02 1020 30.12 849 25.07 -4.3 24.4 81 -7 19.4 -3.791 -0.149
07:03 1020 30.12 849 25.07 -4.2 24.4 81 -7 19.4 -3.797 -0.149
07:04 1020 30.12 849 25.07 -4.2 24.4 82 -6.8 19.7 -3.752 -0.148
07:05 1020 30.12 849 25.07 -4.2 24.4 82 -6.8 19.8 -3.763 -0.148
07:06 1020 30.12 849 25.07 -4.2 24.5 82 -6.8 19.8 -3.729 -0.147
07:07 1020 30.12 849 25.07 -4.1 24.6 82 -6.7 19.9 -3.689 -0.145
07:08 1020 30.12 849 25.07 -4.1 24.6 82 -6.7 19.9 -3.667 -0.144
07:09 1020 30.12 849 25.07 -4.1 24.6 82 -6.8 19.7 -3.706 -0.146
07:10 1020 30.12 849 25.07 -4.1 24.5 82 -6.8 19.7 -3.69 -0.145
07:11 1020 30.12 849 25.07 -4.1 24.6 82 -6.7 20 -3.627 -0.143
07:12 1020 30.12 849 25.07 -4 24.7 79 -7.1 19.2 -3.667 -0.144
07:13 1020 30.12 849 25.07 -4.1 24.6 80 -7 19.3 -3.673 -0.145
07:14 1020 30.12 849 25.07 -4.1 24.7 81 -6.9 19.7 -3.605 -0.142
07:15 1020 30.12 849 25.07 -4.1 24.7 81 -6.8 19.7 -3.61 -0.142
07:16 1020 30.12 849 25.07 -4 24.7 81 -6.9 19.6 -3.622 -0.143
07:17 1020 30.12 849 25.07 -4 24.8 81 -6.8 19.7 -3.644 -0.143
07:18 1020 30.12 849 25.07 -4 24.8 80 -6.9 19.6 -3.622 -0.143
07:19 1020 30.12 849 25.07 -4 24.8 81 -6.8 19.7 -3.64 -0.143
07:20 1020 30.12 849 25.07 -4 24.7 81 -6.8 19.8 -3.612 -0.142
07:21 1020 30.12 849 25.07 -4 24.7 80 -6.9 19.5 -3.606 -0.142
07:22 1020 30.12 849 25.07 -4 24.8 81 -6.9 19.6 -3.612 -0.142
07:23 1020 30.12 849 25.07 -4 24.8 80 -6.9 19.6 -3.562 -0.14
07:24 1020 30.12 849 25.07 -4 24.8 80 -6.9 19.5 -3.562 -0.14
07:25 1020 30.12 849 25.07 -4 24.9 80 -6.9 19.6 -3.54 -0.139
07:26 1020 30.12 849 25.07 -3.9 24.9 79 -7 19.4 -3.506 -0.138
07:27 1020 30.12 849 25.07 -3.9 25 80 -6.8 19.7 -3.426 -0.135
07:28 1020 30.12 849 25.07 -3.9 25.1 81 -6.7 20 -3.399 -0.134
07:29 1020 30.12 849 25.07 -3.8 25.1 81 -6.6 20.1 -3.376 -0.133
07:30 1020 30.12 849 25.07 -3.8 25.2 80 -6.8 19.7 -3.302 -0.13
07:31 1020 30.12 849 25.07 -3.7 25.3 82 -6.5 20.4 -3.269 -0.129
07:32 1020 30.12 849 25.07 -3.7 25.3 79 -6.8 19.7 -3.292 -0.13
07:33 1020 30.12 849 25.07 -3.7 25.3 79 -6.9 19.6 -3.314 -0.13
07:34 1020 30.12 849 25.07 -3.7 25.3 79 -6.9 19.6 -3.326 -0.131
07:35 1020 30.12 849 25.07 -3.7 25.3 79 -6.9 19.7 -3.332 -0.131
07:36 1020 30.12 849 25.07 -3.7 25.3 80 -6.8 19.8 -3.281 -0.129
07:37 1020 30.12 849 25.07 -3.7 25.3 79 -6.9 19.6 -3.309 -0.13
07:38 1020 30.12 849 25.07 -3.7 25.3 79 -6.8 19.8 -3.304 -0.13
07:39 1020 30.12 849 25.07 -3.7 25.4 78 -7 19.5 -3.27 -0.129
07:40 1020 30.12 849 25.07 -3.7 25.3 78 -7 19.4 -3.276 -0.129
07:41 1020 30.12 849 25.07 -3.7 25.4 75 -7.5 18.5 -3.259 -0.128
07:42 1020 30.12 849 25.07 -3.6 25.5 76 -7.3 18.9 -3.208 -0.126
07:43 1020 30.12 849 25.07 -3.6 25.6 73 -7.7 18.1 -3.134 -0.123
07:44 1020 30.12 849 25.07 -3.5 25.7 74 -7.5 18.5 -3.083 -0.121
07:45 1020 30.12 849 25.07 -3.5 25.8 73 -7.6 18.3 -3.049 -0.12
07:46 1020 30.12 849 25.07 -3.4 25.9 73 -7.6 18.4 -3.004 -0.118
07:47 1020 30.12 849 25.07 -3.4 26 73 -7.6 18.4 -2.964 -0.117
07:48 1020 30.12 849 25.07 -3.4 26 72 -7.6 18.2 -2.925 -0.115
07:49 1020 30.12 849 25.07 -3.3 26.1 73 -7.4 18.7 -2.891 -0.114
07:50 1020 30.12 849 25.07 -3.3 26.1 74 -7.4 18.7 -2.874 -0.113
07:51 1020 30.12 849 25.07 -3.2 26.2 73 -7.4 18.7 -2.828 -0.111
07:52 1020 30.12 849 25.07 -3.2 26.3 73 -7.3 18.9 -2.8 -0.11
07:53 1020 30.12 849 25.07 -3.1 26.3 75 -6.9 19.6 -2.732 -0.108
07:54 1020 30.12 849 25.07 -3.1 26.4 76 -6.8 19.8 -2.709 -0.107
07:55 1020 30.12 849 25.07 -3.1 26.4 77 -6.6 20.1 -2.743 -0.108
07:56 1020 30.12 849 25.07 -3.1 26.4 77 -6.6 20.2 -2.738 -0.108
07:57 1020 30.12 849 25.07 -3.2 26.3 74 -7.1 19.2 -2.766 -0.109
07:58 1020 30.12 849 25.07 -3.2 26.3 74 -7.3 18.9 -2.778 -0.109
07:59 1020 30.12 849 25.07 -3.1 26.4 71 -7.7 18.1 -2.766 -0.109
08:00 1020 30.12 849 25.07 -3 26.5 72 -7.5 18.6 -2.658 -0.105
08:01 1020 30.12 849 25.07 -3 26.6 71 -7.5 18.5 -2.573 -0.101
08:02 1020 30.12 849 25.07 -2.9 26.8 72 -7.2 19 -2.488 -0.098
08:03 1020 30.12 849 25.07 -2.9 26.9 74 -6.8 19.7 -2.432 -0.096
08:04 1020 30.12 849 25.07 -2.8 26.9 76 -6.5 20.3 -2.403 -0.095
08:05 1020 30.12 849 25.07 -2.8 27 77 -6.2 20.9 -2.364 -0.093
08:06 1020 30.12 849 25.07 -2.8 26.9 75 -6.6 20.1 -2.392 -0.094
08:07 1020 30.12 849 25.07 -2.8 27 74 -6.8 19.8 -2.426 -0.096
08:08 1020 30.12 849 25.07 -2.8 26.9 71 -7.4 18.7 -2.466 -0.097
08:09 1020 30.12 849 25.07 -2.8 26.9 72 -7.3 18.9 -2.409 -0.095
08:10 1020 30.12 849 25.07 -2.8 27 74 -6.8 19.8 -2.341 -0.092
08:11 1020 30.12 849 25.07 -2.7 27.1 74 -6.7 20 -2.33 -0.092
08:12 1020 30.12 849 25.07 -2.7 27.1 75 -6.6 20.1 -2.29 -0.09
08:13 1020 30.12 849 25.07 -2.7 27.2 76 -6.4 20.5 -2.285 -0.09
08:14 1020 30.12 849 25.07 -2.7 27.2 76 -6.4 20.5 -2.25 -0.089
08:15 1020 30.12 849 25.07 -2.7 27.2 73 -6.8 19.8 -2.251 -0.089
08:16 1020 30.12 849 25.07 -2.6 27.3 73 -6.9 19.6 -2.245 -0.088
08:17 1020 30.12 849 25.07 -2.6 27.3 73 -6.7 19.9 -2.188 -0.086
08:18 1020 30.12 849 25.07 -2.6 27.4 73 -6.7 20 -2.148 -0.085
08:19 1020 30.12 849 25.07 -2.6 27.4 71 -7.1 19.2 -2.143 -0.084
08:20 1020 30.12 849 25.07 -2.5 27.5 71 -7 19.3 -2.126 -0.084
08:21 1020 30.12 849 25.07 -2.5 27.5 73 -6.8 19.8 -2.075 -0.082
08:22 1020 30.12 849 25.07 -2.5 27.6 72 -6.8 19.8 -2.029 -0.08
08:23 1020 30.12 849 25.07 -2.4 27.6 73 -6.6 20.1 -1.995 -0.079
08:24 1020 30.12 849 25.07 -2.4 27.7 72 -6.7 20 -1.961 -0.077
08:25 1020 30.12 849 25.07 -2.3 27.9 73 -6.5 20.3 -1.893 -0.075
08:26 1020 30.12 849 25.07 -2.3 27.9 72 -6.8 19.8 -1.842 -0.073
08:27 1020 30.12 849 25.07 -2.3 27.9 70 -7 19.4 -1.831 -0.072
08:28 1020 30.12 849 25.07 -2.2 28.1 72 -6.6 20 -1.757 -0.069
08:29 1020 30.12 849 25.07 -2.1 28.2 70 -6.9 19.6 -1.69 -0.067
08:30 1020 30.12 849 25.07 -2.1 28.3 71 -6.6 20 -1.668 -0.066
08:31 1020 30.12 849 25.07 -2 28.3 68 -7.1 19.2 -1.606 -0.063
08:32 1020 30.12 849 25.07 -2 28.4 70 -6.8 19.7 -1.572 -0.062
08:33 1020 30.12 849 25.07 -1.9 28.5 69 -6.8 19.7 -1.522 -0.06
08:34 1020 30.12 849 25.07 -1.9 28.6 69 -6.9 19.5 -1.482 -0.058
08:35 1020 30.12 849 25.07 -1.8 28.7 69 -6.8 19.7 -1.437 -0.057
08:36 1020 30.12 849 25.07 -1.8 28.7 68 -7 19.4 -1.403 -0.055
08:37 1020 30.12 849 25.07 -1.8 28.8 68 -6.9 19.5 -1.352 -0.053
08:38 1020 30.12 849 25.07 -1.8 28.8 68 -6.8 19.7 -1.302 -0.051
08:39 1020 30.12 849 25.07 -1.7 29 66 -7.2 19 -1.262 -0.05
08:40 1020 30.12 849 25.07 -1.6 29.1 64 -7.6 18.4 -1.189 -0.047
08:41 1019 30.09 849 25.07 -1.5 29.3 65 -7.3 18.9 -1.104 -0.043
08:42 1019 30.09 849 25.07 -1.5 29.4 64 -7.3 18.8 -1.019 -0.04
08:43 1019 30.09 849 25.07 -1.4 29.5 63 -7.5 18.6 -0.98 -0.039
08:44 1019 30.09 849 25.07 -1.4 29.5 63 -7.5 18.5 -0.94 -0.037
08:45 1019 30.09 849 25.07 -1.3 29.6 62 -7.7 18.1 -0.906 -0.036
08:46 1019 30.09 849 25.07 -1.3 29.7 59 -8.4 16.9 -0.912 -0.036
08:47 1019 30.09 849 25.07 -1.2 29.8 58 -8.6 16.6 -0.873 -0.034
08:48 1019 30.09 849 25.07 -1.2 29.9 60 -7.9 17.8 -0.782 -0.031
08:49 1019 30.09 849 25.07 -1.1 30 59 -8 17.5 -0.731 -0.029
08:50 1019 30.09 849 25.07 -1.1 30 61 -7.6 18.3 -0.708 -0.028
08:51 1019 30.09 849 25.07 -1 30.1 59 -8 17.6 -0.686 -0.027
08:52 1019 30.09 849 25.07 -1 30.1 62 -7.5 18.5 -0.68 -0.027
08:53 1019 30.09 849 25.07 -1 30.3 62 -7.4 18.7 -0.629 -0.025
08:54 1020 30.12 849 25.07 -1 30.3 61 -7.5 18.5 -0.601 -0.024
08:55 1019 30.09 849 25.07 -0.9 30.4 63 -7.1 19.2 -0.567 -0.022
08:56 1019 30.09 849 25.07 -0.9 30.4 60 -7.7 18.1 -0.506 -0.02
08:57 1019 30.09 849 25.07 -0.9 30.4 59 -7.9 17.8 -0.557 -0.022
08:58 1019 30.09 849 25.07 -0.9 30.4 61 -7.4 18.7 -0.501 -0.02
08:59 1019 30.09 849 25.07 -0.9 30.4 61 -7.4 18.7 -0.456 -0.018
09:00 1019 30.09 849 25.07 -0.8 30.5 58 -8 17.6 -0.479 -0.019
09:01 1019 30.09 849 25.07 -0.8 30.5 59 -8 17.6 -0.456 -0.018
09:02 1019 30.09 849 25.07 -0.8 30.5 63 -7 19.4 -0.423 -0.017
09:03 1019 30.09 848 25.04 -0.8 30.5 60 -7.5 18.4 -0.423 -0.017
09:04 1019 30.09 848 25.04 -0.8 30.5 63 -7 19.4 -0.429 -0.017
09:05 1019 30.09 848 25.04 -0.8 30.6 62 -7.1 19.2 -0.379 -0.015
09:06 1019 30.09 848 25.04 -0.7 30.7 61 -7.4 18.6 -0.311 -0.012
09:07 1019 30.09 848 25.04 -0.7 30.7 63 -7 19.5 -0.277 -0.011
09:08 1019 30.09 848 25.04 -0.7 30.8 60 -7.5 18.5 -0.238 -0.009
09:09 1019 30.09 848 25.04 -0.6 30.9 60 -7.5 18.5 -0.215 -0.008
09:10 1019 30.09 848 25.04 -0.6 30.9 60 -7.5 18.6 -0.193 -0.008
09:11 1019 30.09 848 25.04 -0.6 31 57 -8 17.6 -0.142 -0.006
09:12 1019 30.09 848 25.04 -0.5 31.1 59 -7.6 18.3 -0.131 -0.005
09:13 1019 30.09 848 25.04 -0.5 31.1 59 -7.5 18.5 -0.08 -0.003
09:14 1019 30.09 848 25.04 -0.4 31.2 58 -7.8 18 -0.052 -0.002
09:15 1019 30.09 848 25.04 -0.4 31.2 63 -6.7 19.9 -0.035 -0.001
09:16 1019 30.09 848 25.04 -0.4 31.3 59 -7.5 18.5 -0.04 -0.002
09:17 1019 30.09 848 25.04 -0.4 31.3 58 -7.8 18 -0.052 -0.002
09:18 1019 30.09 848 25.04 -0.4 31.3 61 -6.9 19.5 -0.007 -0
09:19 1019 30.09 848 25.04 -0.4 31.3 62 -6.8 19.8 0.027 0.001
09:20 1019 30.09 848 25.04 -0.4 31.3 67 -5.9 21.4 0.061 0.002
09:21 1019 30.09 848 25.04 -0.5 31.2 64 -6.4 20.5 -0.035 -0.001
09:22 1019 30.09 848 25.04 -0.5 31 61 -7.2 19 -0.143 -0.006
09:23 1019 30.09 848 25.04 -0.6 31 65 -6.3 20.7 -0.098 -0.004
09:24 1019 30.09 848 25.04 -0.6 31 61 -7.1 19.2 -0.098 -0.004
09:25 1019 30.09 848 25.04 -0.6 31 58 -7.9 17.7 -0.081 -0.003
09:26 1019 30.09 848 25.04 -0.5 31.1 59 -7.5 18.5 -0.064 -0.003
09:27 1019 30.09 848 25.04 -0.5 31.1 59 -7.6 18.3 -0.036 -0.001
09:28 1019 30.09 848 25.04 -0.5 31.2 61 -7.2 19.1 -0.019 -0.001
09:29 1019 30.09 848 25.04 -0.4 31.2 59 -7.5 18.5 0.015 0.001
09:30 1019 30.09 848 25.04 -0.4 31.3 61 -7 19.3 0.021 0.001
09:31 1019 30.09 848 25.04 -0.4 31.3 60 -7.2 19 0.078 0.003
09:32 1019 30.09 848 25.04 -0.4 31.4 57 -8 17.7 0.066 0.003
09:33 1019 30.09 848 25.04 -0.3 31.4 57 -7.9 17.8 0.066 0.003
09:34 1019 30.09 848 25.04 -0.3 31.5 57 -7.7 18.1 0.105 0.004
09:35 1019 30.09 848 25.04 -0.3 31.5 58 -7.6 18.3 0.138 0.005
09:36 1019 30.09 848 25.04 -0.2 31.6 59 -7.3 18.9 0.138 0.005
09:37 1019 30.09 848 25.04 -0.2 31.6 60 -7.1 19.3 0.217 0.009
09:38 1019 30.09 848 25.04 -0.1 31.7 58 -7.4 18.6 0.239 0.009
09:39 1019 30.09 848 25.04 -0.1 31.8 60 -7 19.3 0.296 0.012
09:40 1019 30.09 848 25.04 -0.1 31.8 60 -7 19.4 0.318 0.013
09:41 1019 30.09 848 25.04 -0.1 31.8 62 -6.5 20.4 0.289 0.011
09:42 1019 30.09 848 25.04 -0.1 31.9 62 -6.5 20.2 0.306 0.012
09:43 1019 30.09 848 25.04 -0.1 31.9 59 -7 19.3 0.34 0.013
09:44 1019 30.09 848 25.04 -0 31.9 61 -6.7 20 0.368 0.014
09:45 1019 30.09 848 25.04 0 32 61 -6.7 19.9 0.425 0.017
09:46 1019 30.09 848 25.04 0.1 32.1 59 -7 19.4 0.452 0.018
09:47 1019 30.09 848 25.04 0.1 32.2 56 -7.7 18.2 0.469 0.018
09:48 1019 30.09 848 25.04 0.1 32.2 59 -7 19.4 0.481 0.019
09:49 1019 30.09 848 25.04 0.2 32.3 56 -7.6 18.3 0.559 0.022
09:50 1019 30.09 848 25.04 0.2 32.3 55 -7.9 17.8 0.548 0.022
09:51 1019 30.09 848 25.04 0.2 32.4 53 -8.2 17.3 0.576 0.023
09:52 1019 30.09 848 25.04 0.3 32.5 57 -7.2 19 0.627 0.025
09:53 1019 30.09 848 25.04 0.3 32.6 53 -8.2 17.3 0.644 0.025
09:54 1019 30.09 848 25.04 0.3 32.6 56 -7.4 18.7 0.684 0.027
09:55 1019 30.09 848 25.04 0.3 32.6 55 -7.6 18.3 0.695 0.027
09:56 1019 30.09 848 25.04 0.3 32.6 58 -7 19.4 0.712 0.028
09:57 1019 30.09 848 25.04 0.4 32.7 59 -6.7 20 0.779 0.031
09:58 1019 30.09 848 25.04 0.4 32.7 54 -7.8 18 0.852 0.034
09:59 1019 30.09 848 25.04 0.5 32.9 49 -8.9 15.9 0.829 0.033
10:00 1019 30.09 848 25.04 0.4 32.8 53 -8.2 17.3 0.817 0.032
10:01 1019 30.09 848 25.04 0.5 32.8 54 -7.7 18.2 0.828 0.033
10:02 1019 30.09 848 25.04 0.5 32.8 56 -7.4 18.7 0.845 0.033
10:03 1019 30.09 848 25.04 0.4 32.8 57 -7.1 19.2 0.822 0.032
10:04 1019 30.09 848 25.04 0.5 32.8 59 -6.7 20 0.917 0.036
10:05 1019 30.09 848 25.04 0.5 32.9 59 -6.5 20.3 0.985 0.039
10:06 1019 30.09 848 25.04 0.5 32.9 61 -6.2 20.9 0.974 0.038
10:07 1019 30.09 848 25.04 0.5 32.9 58 -6.9 19.6 0.979 0.039
10:08 1019 30.09 848 25.04 0.5 32.9 58 -6.8 19.7 1.064 0.042
10:09 1019 30.09 848 25.04 0.6 33.1 59 -6.5 20.3 1.16 0.046
10:10 1019 30.09 848 25.04 0.7 33.3 58 -6.6 20.1 1.193 0.047
10:11 1019 30.09 848 25.04 0.7 33.3 60 -6.3 20.7 1.188 0.047
10:12 1019 30.09 848 25.04 0.7 33.3 55 -7.4 18.7 1.221 0.048
10:13 1019 30.09 848 25.04 0.7 33.3 56 -7.1 19.1 1.182 0.047
10:14 1019 30.09 848 25.04 0.8 33.4 50 -8.5 16.6 1.221 0.048
10:15 1019 30.09 848 25.04 0.8 33.5 56 -6.9 19.6 1.238 0.049
10:16 1019 30.09 848 25.04 0.9 33.6 52 -7.8 18 1.311 0.052
10:17 1019 30.09 848 25.04 1 33.7 53 -7.5 18.5 1.334 0.053
10:18 1019 30.09 848 25.04 1 33.8 55 -7 19.5 1.368 0.054
10:19 1019 30.09 848 25.04 1 33.8 52 -7.9 17.8 1.379 0.054
10:20 1019 30.09 848 25.04 1 33.8 55 -6.9 19.5 1.39 0.055
10:21 1019 30.09 848 25.04 1.1 33.9 55 -7 19.5 1.436 0.057
10:22 1019 30.09 848 25.04 1.1 33.9 55 -6.9 19.6 1.503 0.059
10:23 1019 30.09 848 25.04 1.1 33.9 54 -7.2 19 1.475 0.058
10:24 1019 30.09 848 25.04 1 33.8 49 -8.5 16.8 1.452 0.057
10:25 1019 30.09 848 25.04 1 33.8 60 -6 21.3 1.526 0.06
10:26 1019 30.09 848 25.04 1 33.8 56 -6.8 19.8 1.52 0.06
10:27 1019 30.09 848 25.04 1 33.8 51 -8.1 17.5 1.469 0.058
10:28 1019 30.09 848 25.04 1 33.7 49 -8.6 16.5 1.497 0.059
10:29 1019 30.09 848 25.04 1 33.8 52 -7.8 18 1.469 0.058
10:30 1019 30.09 848 25.04 1 33.8 51 -8 17.7 1.514 0.06
10:31 1019 30.09 848 25.04 1.1 34 51 -8 17.6 1.594 0.063
10:32 1019 30.09 848 25.04 1.2 34.1 49 -8.5 16.7 1.611 0.063
10:33 1019 30.09 848 25.04 1.2 34.2 50 -8.1 17.4 1.633 0.064
10:34 1019 30.09 848 25.04 1.3 34.3 54 -7.1 19.2 1.69 0.067
10:35 1019 30.09 848 25.04 1.4 34.5 49 -8.3 17.1 1.78 0.07
10:36 1019 30.09 848 25.04 1.5 34.7 48 -8.3 17 1.797 0.071
10:37 1019 30.09 848 25.04 1.5 34.7 53 -7.2 19.1 1.814 0.071
10:38 1019 30.09 848 25.04 1.6 34.9 53 -7.1 19.2 1.939 0.076
10:39 1019 30.09 848 25.04 1.7 35 53 -6.9 19.5 2.098 0.083
10:40 1019 30.09 848 25.04 1.7 35.1 54 -6.7 20 2.182 0.086
10:41 1019 30.09 848 25.04 1.9 35.3 50 -7.5 18.5 2.256 0.089
10:42 1019 30.09 848 25.04 1.9 35.4 50 -7.5 18.6 2.238 0.088
10:43 1019 30.09 848 25.04 1.8 35.2 49 -7.8 17.9 2.215 0.087
10:44 1019 30.09 848 25.04 1.8 35.2 49 -7.9 17.8 2.147 0.085
10:45 1019 30.09 848 25.04 1.7 35 54 -6.7 20 2.083 0.082
10:46 1019 30.09 848 25.04 1.7 35.1 51 -7.3 18.9 2.095 0.082
10:47 1019 30.09 848 25.04 1.6 35 50 -7.7 18.1 2.077 0.082
10:48 1019 30.09 848 25.04 1.7 35 51 -7.5 18.5 2.077 0.082
10:49 1019 30.09 848 25.04 1.7 35 51 -7.3 18.8 2.111 0.083
10:50 1019 30.09 848 25.04 1.6 35 57 -6.1 21.1 2.122 0.084
10:51 1019 30.09 848 25.04 1.7 35.1 57 -5.9 21.3 2.172 0.086
10:52 1019 30.09 848 25.04 1.7 35.1 52 -7.1 19.2 2.206 0.087
10:53 1019 30.09 848 25.04 1.7 35.1 51 -7.3 18.8 2.126 0.084
10:54 1019 30.09 848 25.04 1.8 35.2 54 -6.5 20.4 2.108 0.083
10:55 1019 30.09 848 25.04 1.8 35.3 51 -7.2 19.1 2.193 0.086
10:56 1019 30.09 848 25.04 1.8 35.3 55 -6.3 20.7 2.237 0.088
10:57 1019 30.09 848 25.04 1.9 35.4 52 -6.9 19.6 2.288 0.09
10:58 1019 30.09 848 25.04 1.8 35.3 56 -6.1 21.1 2.282 0.09
10:59 1019 30.09 848 25.04 1.8 35.3 53 -6.7 19.9 2.287 0.09
11:00 1019 30.09 848 25.04 1.9 35.4 57 -5.8 21.6 2.332 0.092
11:01 1019 30.09 848 25.04 2 35.6 54 -6.3 20.7 2.496 0.098
11:02 1019 30.09 848 25.04 2.2 35.9 50 -7.3 18.9 2.608 0.103
11:03 1019 30.09 848 25.04 2.3 36.2 55 -5.9 21.4 2.767 0.109
11:04 1019 30.09 848 25.04 2.4 36.3 52 -6.4 20.5 2.852 0.112
11:05 1019 30.09 848 25.04 2.5 36.5 47 -7.8 18 2.959 0.116
11:06 1019 30.09 848 25.04 2.6 36.6 50 -6.8 19.8 3.015 0.119
11:07 1019 30.09 848 25.04 2.6 36.6 44 -8.5 16.8 3.004 0.118
11:08 1019 30.09 848 25.04 2.6 36.6 43 -8.8 16.1 2.998 0.118
11:09 1019 30.09 848 25.04 2.6 36.6 46 -7.9 17.7 2.997 0.118
11:10 1019 30.09 848 25.04 2.5 36.6 49 -7.1 19.3 2.992 0.118
11:11 1019 30.09 848 25.04 2.5 36.5 47 -7.7 18.2 2.969 0.117
11:12 1019 30.09 848 25.04 2.5 36.5 50 -6.9 19.6 2.946 0.116
11:13 1019 30.09 848 25.04 2.5 36.5 47 -7.7 18.1 2.946 0.116
11:14 1019 30.09 848 25.04 2.5 36.5 49 -7 19.4 2.934 0.116
11:15 1019 30.09 848 25.04 2.5 36.5 52 -6.3 20.7 2.985 0.118
11:16 1019 30.09 848 25.04 2.5 36.5 48 -7.5 18.5 2.906 0.114
11:17 1019 30.09 848 25.04 2.5 36.5 50 -6.9 19.6 2.956 0.116
11:18 1019 30.09 848 25.04 2.5 36.5 52 -6.4 20.5 2.979 0.117
11:19 1019 30.09 848 25.04 2.5 36.6 51 -6.7 19.9 3.013 0.119
11:20 1019 30.09 848 25.04 2.5 36.6 49 -7.2 19.1 3.024 0.119
11:21 1019 30.09 848 25.04 2.6 36.7 52 -6.2 20.9 3.047 0.12
11:22 1019 30.09 848 25.04 2.6 36.7 51 -6.5 20.3 3.069 0.121
11:23 1019 30.09 848 25.04 2.6 36.8 48 -7.3 18.9 3.143 0.124
11:24 1018 30.06 848 25.04 2.7 36.9 50 -6.7 19.9 3.194 0.126
11:25 1018 30.06 848 25.04 2.8 37 51 -6.3 20.7 3.216 0.127
11:26 1018 30.06 848 25.04 2.8 37.1 45 -7.8 17.9 3.279 0.129
11:27 1018 30.06 848 25.04 2.9 37.2 46 -7.6 18.3 3.346 0.132
11:28 1018 30.06 848 25.04 2.9 37.3 51 -6.1 20.9 3.431 0.135
11:29 1018 30.06 848 25.04 3 37.4 48 -7 19.5 3.465 0.136
11:30 1018 30.06 848 25.04 3.1 37.6 42 -8.6 16.6 3.533 0.139
11:31 1018 30.06 848 25.04 3.1 37.7 47 -7 19.4 3.595 0.142
11:32 1018 30.06 847 25.01 3.2 37.8 47 -7 19.4 3.731 0.147
11:33 1018 30.06 847 25.01 3.4 38.1 47 -7 19.4 3.856 0.152
11:34 1018 30.06 847 25.01 3.4 38.2 48 -6.7 20 3.913 0.154
11:35 1018 30.06 848 25.04 3.5 38.3 47 -6.9 19.6 3.975 0.156
11:36 1018 30.06 847 25.01 3.6 38.4 49 -6 21.2 3.992 0.157
11:37 1018 30.06 847 25.01 3.6 38.5 49 -6.1 21 4.093 0.161
11:38 1018 30.06 847 25.01 3.7 38.6 41 -8.4 16.8 4.132 0.163
11:39 1018 30.06 847 25.01 3.7 38.7 47 -6.7 20 4.137 0.163
11:40 1018 30.06 847 25.01 3.8 38.8 44 -7.5 18.5 4.223 0.166
11:41 1018 30.06 847 25.01 3.8 38.9 45 -6.9 19.6 4.274 0.168
11:42 1018 30.06 847 25.01 3.9 39.1 54 -4.6 23.7 4.455 0.175
11:43 1018 30.06 847 25.01 4 39.2 41 -8 17.5 4.46 0.176
11:44 1018 30.06 847 25.01 4 39.1 46 -6.5 20.3 4.442 0.175
11:45 1018 30.06 847 25.01 4 39.1 42 -7.9 17.8 4.442 0.175
11:46 1018 30.06 847 25.01 4 39.3 48 -5.9 21.3 4.487 0.177
11:47 1018 30.06 847 25.01 4.2 39.6 54 -4.3 24.2 4.736 0.186
11:48 1018 30.06 847 25.01 4.4 40 50 -5 23 4.934 0.194
11:49 1018 30.06 847 25.01 4.4 40 45 -6.3 20.6 4.95 0.195
11:50 1018 30.06 847 25.01 4.3 39.7 46 -6.2 20.8 4.763 0.188
11:51 1018 30.06 847 25.01 4.2 39.5 44 -7 19.4 4.644 0.183
11:52 1018 30.06 847 25.01 4.1 39.4 49 -5.7 21.8 4.546 0.179
11:53 1018 30.06 847 25.01 4.1 39.4 46 -6.3 20.6 4.54 0.179
11:54 1018 30.06 847 25.01 4.3 39.7 52 -4.8 23.4 4.749 0.187
11:55 1018 30.06 847 25.01 4.5 40.1 50 -5.1 22.7 5.003 0.197
11:56 1018 30.06 847 25.01 4.6 40.3 43 -6.8 19.8 5.059 0.199
11:57 1018 30.06 847 25.01 4.6 40.2 42 -7.2 19 5.053 0.199
11:58 1018 30.06 847 25.01 4.5 40.2 40 -7.9 17.8 4.995 0.197
11:59 1018 30.06 847 25.01 4.5 40.1 45 -6.3 20.6 4.961 0.195
12:00 1018 30.06 847 25.01 4.5 40.1 46 -6.2 20.9 4.984 0.196
12:01 1018 30.06 847 25.01 4.5 40.1 39 -8.2 17.3 4.943 0.195
12:02 1017 30.03 847 25.01 4.4 40 39 -8.4 17 4.904 0.193
12:03 1017 30.03 847 25.01 4.4 40 45 -6.6 20.2 4.864 0.191
12:04 1017 30.03 847 25.01 4.5 40.1 49 -5.3 22.5 4.976 0.196
12:05 1017 30.03 847 25.01 4.6 40.3 45 -6.4 20.5 5.067 0.199
12:06 1017 30.03 847 25.01 4.6 40.3 47 -5.7 21.8 5.061 0.199
12:07 1017 30.03 847 25.01 4.6 40.2 52 -4.6 23.8 5.01 0.197
12:08 1017 30.03 847 25.01 4.6 40.2 45 -6.4 20.5 5.01 0.197
12:09 1017 30.03 847 25.01 4.5 40.1 43 -6.9 19.6 4.97 0.196
12:10 1017 30.03 847 25.01 4.4 40 46 -6.1 21 4.907 0.193
12:11 1017 30.03 847 25.01 4.4 39.9 50 -5.1 22.9 4.919 0.194
12:12 1017 30.03 847 25.01 4.5 40.1 41 -7.6 18.2 4.935 0.194
12:13 1017 30.03 847 25.01 4.5 40.1 50 -4.9 23.2 4.924 0.194
12:14 1017 30.03 847 25.01 4.5 40.1 44 -6.7 20 4.952 0.195
12:15 1017 30.03 847 25.01 4.5 40.1 45 -6.4 20.5 4.98 0.196
12:16 1017 30.03 847 25.01 4.6 40.2 37 -9 15.8 5.02 0.198
12:17 1017 30.03 847 25.01 4.4 40 39 -8.2 17.2 4.872 0.192
12:18 1017 30.03 847 25.01 4.3 39.8 39 -8.3 17.1 4.776 0.188
12:19 1017 30.03 847 25.01 4.2 39.6 43 -7.2 19.1 4.68 0.184
12:20 1017 30.03 847 25.01 4.2 39.6 45 -6.8 19.8 4.64 0.183
12:21 1017 30.03 847 25.01 4.2 39.6 43 -7.3 18.8 4.668 0.184
12:22 1017 30.03 847 25.01 4.2 39.5 42 -7.6 18.4 4.651 0.183
12:23 1017 30.03 847 25.01 4.2 39.5 43 -7.3 18.8 4.6 0.181
12:24 1017 30.03 847 25.01 4.2 39.5 45 -6.7 19.9 4.645 0.183
12:25 1017 30.03 847 25.01 4.3 39.7 51 -5.1 22.9 4.73 0.186
12:26 1017 30.03 846 24.98 4.4 39.9 43 -7.2 19.1 4.809 0.189
12:27 1017 30.03 846 24.98 4.3 39.8 44 -7 19.4 4.791 0.189
12:28 1017 30.03 846 24.98 4.4 39.9 44 -6.9 19.7 4.853 0.191
12:29 1017 30.03 846 24.98 4.5 40 46 -6.3 20.7 4.921 0.194
12:30 1017 30.03 846 24.98 4.5 40 45 -6.4 20.5 4.948 0.195
12:31 1017 30.03 846 24.98 4.5 40 44 -6.7 19.9 4.959 0.195
12:32 1017 30.03 846 24.98 4.6 40.2 52 -4.6 23.8 5.005 0.197
12:33 1017 30.03 846 24.98 4.7 40.4 45 -6.2 20.8 5.145 0.203
12:34 1017 30.03 846 24.98 4.7 40.5 45 -6.2 20.8 5.179 0.204
12:35 1017 30.03 846 24.98 4.8 40.6 38 -8.3 17 5.236 0.206
12:36 1017 30.03 846 24.98 4.8 40.6 43 -6.8 19.8 5.235 0.206
12:37 1017 30.03 846 24.98 4.8 40.7 45 -6.1 21.1 5.269 0.207
12:38 1017 30.03 846 24.98 4.8 40.7 44 -6.3 20.6 5.269 0.207
12:39 1017 30.03 846 24.98 4.9 40.7 43 -6.8 19.7 5.325 0.21
12:40 1017 30.03 846 24.98 4.9 40.8 42 -7.1 19.3 5.364 0.211
12:41 1017 30.03 846 24.98 5.1 41.1 39 -7.8 18 5.489 0.216
12:42 1017 30.03 846 24.98 5.4 41.6 44 -5.8 21.5 5.771 0.227
12:43 1017 30.03 846 24.98 5.5 41.9 41 -6.9 19.7 5.947 0.234
12:44 1017 30.03 846 24.98 5.6 42.1 43 -6.1 21 6.082 0.239
12:45 1017 30.03 846 24.98 5.8 42.4 45 -5.2 22.6 6.235 0.245
12:46 1017 30.03 846 24.98 5.9 42.7 41 -6.2 20.8 6.427 0.253
12:47 1017 30.03 846 24.98 6 42.8 45 -4.9 23.1 6.473 0.255
12:48 1017 30.03 846 24.98 6.1 42.9 48 -4.2 24.4 6.568 0.259
12:49 1017 30.03 846 24.98 6.1 43 41 -6.1 21 6.597 0.26
12:50 1017 30.03 846 24.98 6 42.9 45 -4.9 23.1 6.529 0.257
12:51 1017 30.03 846 24.98 6.1 43 43 -5.6 22 6.623 0.261
12:52 1017 30.03 846 24.98 6 42.9 39 -6.8 19.8 6.544 0.258
12:53 1017 30.03 846 24.98 5.8 42.4 42 -6.1 21.1 6.238 0.246
12:54 1017 30.03 846 24.98 5.6 42.1 44 -5.8 21.6 6.073 0.239
12:55 1017 30.03 846 24.98 5.4 41.7 42 -6.6 20.1 5.863 0.231
12:56 1017 30.03 846 24.98 5.2 41.3 46 -5.4 22.3 5.631 0.222
12:57 1017 30.03 847 25.01 5 41 42 -6.9 19.6 5.472 0.215
12:58 1017 30.03 846 24.98 4.9 40.8 44 -6.3 20.6 5.364 0.211
12:59 1017 30.03 846 24.98 4.8 40.6 46 -5.9 21.4 5.25 0.207
13:00 1017 30.03 846 24.98 4.6 40.4 40 -7.8 18 5.08 0.2
13:01 1017 30.03 846 24.98 4.5 40.2 42 -7.1 19.1 5.001 0.197
13:02 1017 30.03 846 24.98 4.5 40.1 48 -5.6 21.9 4.938 0.194
13:03 1017 30.03 846 24.98 4.4 40 49 -5.3 22.4 4.927 0.194
13:04 1017 30.03 846 24.98 4.5 40 49 -5.2 22.6 4.881 0.192
13:05 1017 30.03 846 24.98 4.4 39.9 46 -6.2 20.8 4.853 0.191
13:06 1017 30.03 846 24.98 4.4 39.9 47 -6 21.2 4.824 0.19
13:07 1017 30.03 846 24.98 4.3 39.8 48 -5.7 21.8 4.745 0.187
13:08 1017 30.03 846 24.98 4.3 39.7 46 -6.3 20.7 4.705 0.185
13:09 1017 30.03 846 24.98 4.2 39.6 49 -5.4 22.2 4.71 0.185
13:10 1017 30.03 846 24.98 4.2 39.6 49 -5.5 22.2 4.682 0.184
13:11 1017 30.03 846 24.98 4.2 39.6 47 -6.2 20.8 4.665 0.184
13:12 1017 30.03 846 24.98 4.2 39.6 49 -5.6 21.9 4.636 0.183
13:13 1017 30.03 846 24.98 4.2 39.6 52 -4.8 23.4 4.71 0.185
13:14 1017 30.03 846 24.98 4.2 39.6 49 -5.5 22.1 4.693 0.185
13:15 1017 30.03 846 24.98 4.3 39.7 47 -6.2 20.8 4.676 0.184
13:16 1017 30.03 846 24.98 4.3 39.8 51 -4.8 23.3 4.755 0.187
13:17 1017 30.03 846 24.98 4.4 39.9 44 -6.9 19.6 4.806 0.189
13:18 1017 30.03 846 24.98 4.5 40.1 48 -5.7 21.8 4.874 0.192
13:19 1017 30.03 846 24.98 4.5 40.2 51 -4.8 23.3 5.021 0.198
13:20 1017 30.03 846 24.98 4.6 40.3 48 -5.5 22.2 5.043 0.199
13:21 1017 30.03 846 24.98 4.7 40.5 51 -4.5 23.9 5.185 0.204
13:22 1017 30.03 846 24.98 4.8 40.6 43 -6.8 19.8 5.236 0.206
13:23 1017 30.03 846 24.98 4.9 40.8 45 -5.9 21.4 5.309 0.209
13:24 1017 30.03 846 24.98 5 40.9 45 -6 21.2 5.337 0.21
13:25 1017 30.03 846 24.98 4.9 40.9 46 -5.7 21.7 5.371 0.211
13:26 1017 30.03 846 24.98 4.9 40.9 43 -6.6 20.1 5.394 0.212
13:27 1017 30.03 846 24.98 5 40.9 44 -6.3 20.6 5.377 0.212
13:28 1017 30.03 846 24.98 4.9 40.9 44 -6.3 20.6 5.365 0.211
13:29 1017 30.03 846 24.98 4.9 40.8 42 -7 19.4 5.331 0.21
13:30 1017 30.03 846 24.98 4.9 40.8 42 -7 19.5 5.297 0.209
13:31 1017 30.03 846 24.98 4.9 40.8 48 -5.2 22.6 5.354 0.211
13:32 1017 30.03 846 24.98 5 40.9 40 -7.4 18.7 5.331 0.21
13:33 1017 30.03 846 24.98 4.9 40.9 47 -5.6 22 5.348 0.211
13:34 1017 30.03 846 24.98 4.9 40.8 41 -7.4 18.7 5.275 0.208
13:35 1017 30.03 846 24.98 4.8 40.7 44 -6.3 20.6 5.258 0.207
13:36 1017 30.03 846 24.98 4.8 40.6 45 -6 21.1 5.218 0.205
13:37 1017 30.03 846 24.98 4.8 40.6 46 -5.8 21.6 5.218 0.205
13:38 1017 30.03 846 24.98 4.7 40.5 47 -5.7 21.8 5.173 0.204
13:39 1017 30.03 846 24.98 4.8 40.6 46 -5.8 21.5 5.173 0.204
13:40 1017 30.03 846 24.98 4.8 40.6 43 -6.7 20 5.212 0.205
13:41 1017 30.03 846 24.98 4.8 40.7 46 -5.7 21.8 5.229 0.206
13:42 1017 30.03 846 24.98 4.8 40.6 45 -6.2 20.8 5.263 0.207
13:43 1017 30.03 846 24.98 4.8 40.7 44 -6.6 20.2 5.241 0.206
13:44 1017 30.03 846 24.98 4.8 40.7 48 -5.3 22.5 5.258 0.207
13:45 1017 30.03 846 24.98 4.8 40.7 44 -6.5 20.2 5.303 0.209
13:46 1017 30.03 846 24.98 4.9 40.8 44 -6.3 20.7 5.314 0.209
13:47 1017 30.03 846 24.98 4.9 40.8 42 -7.1 19.3 5.314 0.209
13:48 1017 30.03 846 24.98 4.9 40.8 46 -5.9 21.4 5.371 0.211
13:49 1017 30.03 846 24.98 4.9 40.9 46 -5.6 21.8 5.376 0.212
13:50 1017 30.03 846 24.98 4.9 40.8 47 -5.6 22 5.348 0.211
13:51 1017 30.03 846 24.98 4.9 40.8 45 -6.2 20.9 5.348 0.211
13:52 1017 30.03 846 24.98 4.9 40.9 44 -6.4 20.4 5.342 0.21
13:53 1017 30.03 846 24.98 5 41 41 -7.2 19.1 5.376 0.212
13:54 1017 30.03 846 24.98 5 41 46 -5.7 21.7 5.405 0.213
13:55 1017 30.03 846 24.98 5 41 42 -6.8 19.8 5.439 0.214
13:56 1017 30.03 846 24.98 5 41 45 -5.9 21.4 5.439 0.214
13:57 1017 30.03 846 24.98 5 41 46 -5.7 21.7 5.461 0.215
13:58 1017 30.03 846 24.98 5 41 45 -5.8 21.5 5.484 0.216
13:59 1017 30.03 846 24.98 5 41 47 -5.3 22.5 5.484 0.216
14:00 1017 30.03 846 24.98 5 41 46 -5.7 21.8 5.467 0.215
14:01 1017 30.03 846 24.98 5 41 48 -5 23 5.439 0.214
14:02 1017 30.03 846 24.98 5 41.1 44 -6.1 21 5.49 0.216
14:03 1017 30.03 846 24.98 5 41.1 45 -6 21.1 5.45 0.215
14:04 1017 30.03 846 24.98 5 41 45 -5.8 21.5 5.427 0.214
14:05 1017 30.03 846 24.98 4.9 40.8 45 -6.1 21 5.371 0.211
14:06 1017 30.03 846 24.98 4.9 40.9 42 -6.9 19.5 5.337 0.21
14:07 1017 30.03 846 24.98 4.9 40.9 47 -5.5 22.2 5.359 0.211
14:08 1017 30.03 846 24.98 4.9 40.8 45 -6.2 20.9 5.325 0.21
14:09 1017 30.03 846 24.98 4.9 40.7 47 -5.4 22.2 5.303 0.209
14:10 1017 30.03 846 24.98 4.8 40.6 46 -5.9 21.3 5.235 0.206
14:11 1017 30.03 846 24.98 4.8 40.6 47 -5.5 22.1 5.207 0.205
14:12 1016 30 846 24.98 4.8 40.6 49 -5 23 5.178 0.204
14:13 1016 30 846 24.98 4.7 40.5 48 -5.3 22.5 5.167 0.203
14:14 1016 30 846 24.98 4.7 40.4 48 -5.5 22 5.133 0.202
14:15 1016 30 846 24.98 4.7 40.5 49 -5.2 22.7 5.144 0.203
14:16 1016 30 846 24.98 4.7 40.5 48 -5.2 22.6 5.173 0.204
14:17 1016 30 846 24.98 4.7 40.4 47 -5.6 22 5.105 0.201
14:18 1016 30 846 24.98 4.7 40.5 49 -5.1 22.8 5.144 0.203
14:19 1016 30 846 24.98 4.8 40.6 47 -5.7 21.8 5.207 0.205
14:20 1016 30 846 24.98 4.9 40.7 45 -6 21.1 5.229 0.206
14:21 1016 30 846 24.98 4.9 40.8 42 -6.9 19.6 5.32 0.209
14:22 1016 30 846 24.98 5 41 43 -6.5 20.4 5.433 0.214
14:23 1016 30 846 24.98 5 41.1 45 -6 21.3 5.495 0.216
14:24 1016 30 846 24.98 5.1 41.1 46 -5.7 21.7 5.512 0.217
14:25 1016 30 845 24.95 5.1 41.2 44 -6.1 21 5.484 0.216
14:26 1016 30 846 24.98 5.1 41.1 47 -5.3 22.5 5.495 0.216
14:27 1016 30 845 24.95 5 41 47 -5.3 22.4 5.484 0.216
14:28 1016 30 845 24.95 4.9 40.9 49 -5 23.1 5.393 0.212
14:29 1016 30 845 24.95 4.9 40.9 48 -5.3 22.5 5.354 0.211
14:30 1016 30 845 24.95 4.9 40.9 46 -5.7 21.8 5.359 0.211
14:31 1016 30 845 24.95 4.9 40.9 46 -5.7 21.7 5.337 0.21
14:32 1016 30 845 24.95 4.9 40.9 46 -5.7 21.7 5.371 0.211
14:33 1016 30 845 24.95 4.9 40.8 48 -5.3 22.4 5.331 0.21
14:34 1016 30 845 24.95 4.9 40.8 50 -4.7 23.5 5.331 0.21
14:35 1016 30 845 24.95 4.9 40.8 50 -4.7 23.5 5.32 0.209
14:36 1016 30 845 24.95 4.9 40.8 49 -5 23.1 5.32 0.209
14:37 1016 30 845 24.95 4.9 40.8 51 -4.4 24.1 5.337 0.21
14:38 1016 30 845 24.95 4.9 40.7 53 -3.8 25.1 5.331 0.21
14:39 1016 30 845 24.95 4.8 40.7 53 -4 24.7 5.291 0.208
14:40 1016 30 845 24.95 4.8 40.6 53 -4 24.8 5.224 0.206
14:41 1016 30 845 24.95 4.7 40.5 53 -4 24.8 5.195 0.205
14:42 1016 30 845 24.95 4.7 40.5 55 -3.6 25.6 5.167 0.203
14:43 1016 30 845 24.95 4.8 40.6 48 -5.3 22.5 5.201 0.205
14:44 1016 30 845 24.95 4.8 40.7 50 -4.7 23.6 5.286 0.208
14:45 1016 30 845 24.95 5 40.9 53 -3.8 25.2 5.422 0.213
14:46 1016 30 845 24.95 5 40.9 54 -3.5 25.7 5.405 0.213
14:47 1016 30 845 24.95 4.9 40.9 50 -4.6 23.7 5.388 0.212
14:48 1016 30 845 24.95 4.9 40.9 52 -4.2 24.5 5.376 0.212
14:49 1016 30 845 24.95 5 41 53 -3.9 25 5.416 0.213
14:50 1016 30 845 24.95 5 41 51 -4.4 24.1 5.399 0.213
14:51 1016 30 845 24.95 5 41 50 -4.6 23.8 5.507 0.217
14:52 1016 30 845 24.95 5.1 41.2 51 -4.2 24.5 5.597 0.22
14:53 1016 30 845 24.95 5.2 41.4 51 -4 24.8 5.659 0.223
14:54 1016 30 845 24.95 5.3 41.5 49 -4.5 24 5.756 0.227
14:55 1016 30 845 24.95 5.4 41.8 44 -5.8 21.5 5.818 0.229
14:56 1016 30 845 24.95 5.5 42 47 -4.9 23.2 5.982 0.236
14:57 1016 30 845 24.95 5.7 42.3 47 -4.7 23.6 6.095 0.24
14:58 1016 30 845 24.95 5.8 42.4 46 -4.9 23.2 6.214 0.245
14:59 1016 30 845 24.95 5.9 42.6 45 -5.1 22.9 6.316 0.249
15:00 1016 30 845 24.95 6 42.8 48 -4.2 24.5 6.446 0.254
15:01 1016 30 845 24.95 6.1 43 49 -3.9 25.1 6.548 0.258
15:02 1016 30 845 24.95 6.2 43.2 46 -4.4 24 6.689 0.263
15:03 1016 30 845 24.95 6.3 43.3 45 -4.7 23.5 6.729 0.265
15:04 1016 30 845 24.95 6.4 43.5 48 -3.9 25 6.836 0.269
15:05 1016 30 845 24.95 6.5 43.6 50 -3.2 26.2 6.916 0.272
15:06 1016 30 845 24.95 6.5 43.8 44 -4.8 23.4 7.01 0.276
15:07 1016 30 845 24.95 6.6 43.9 44 -4.7 23.6 6.967 0.274
15:08 1016 30 845 24.95 6.6 44 44 -4.6 23.7 7.09 0.279
15:09 1016 30 845 24.95 6.8 44.2 47 -3.8 25.1 7.26 0.286
15:10 1016 30 845 24.95 7 44.6 41 -5.2 22.6 7.48 0.294
15:11 1016 30 845 24.95 7.2 44.9 41 -5.1 22.7 7.62 0.3
15:12 1016 30 845 24.95 7.1 44.7 46 -3.7 25.3 7.5 0.295
15:13 1016 30 845 24.95 7.2 44.9 44 -4.3 24.3 7.63 0.3
15:14 1016 30 845 24.95 7.4 45.2 45 -3.8 25.1 7.84 0.309
15:15 1016 30 845 24.95 7.5 45.5 47 -3.1 26.5 7.97 0.314
15:16 1016 30 845 24.95 7.4 45.4 43 -4.2 24.4 7.9 0.311
15:17 1016 30 845 24.95 7.3 45.2 42 -4.6 23.7 7.76 0.306
15:18 1016 30 845 24.95 7.2 44.9 42 -4.7 23.5 7.62 0.3
15:19 1016 30 845 24.95 7.1 44.8 40 -5.5 22.2 7.57 0.298
15:20 1016 30 845 24.95 7.1 44.7 42 -4.8 23.3 7.51 0.296
15:21 1016 30 845 24.95 7.1 44.7 49 -3 26.7 7.5 0.295
15:22 1016 30 845 24.95 7.1 44.7 44 -4.3 24.2 7.48 0.294
15:23 1016 30 845 24.95 7 44.6 50 -2.7 27.1 7.43 0.293
15:24 1016 30 845 24.95 7 44.5 49 -3 26.6 7.4 0.291
15:25 1016 30 845 24.95 6.9 44.5 44 -4.5 23.9 7.41 0.292
15:26 1016 30 845 24.95 6.9 44.4 46 -4 24.8 7.31 0.288
15:27 1016 30 845 24.95 6.8 44.2 47 -3.7 25.4 7.21 0.284
15:28 1016 30 845 24.95 6.8 44.2 46 -4.1 24.5 7.17 0.282
15:29 1016 30 845 24.95 6.7 44.1 46 -4 24.7 7.18 0.283
15:30 1016 30 845 24.95 6.7 44 45 -4.3 24.2 7.12 0.28
15:31 1016 30 845 24.95 6.7 44 44 -4.6 23.7 7.08 0.279
15:32 1016 30 845 24.95 6.6 43.9 40 -6 21.2 7 0.276
15:33 1016 30 845 24.95 6.6 43.8 43 -5.1 22.8 7.01 0.276
15:34 1016 30 845 24.95 6.5 43.7 42 -5.4 22.3 6.955 0.274
15:35 1016 30 845 24.95 6.5 43.7 42 -5.4 22.2 6.925 0.273
15:36 1016 30 845 24.95 6.4 43.6 44 -5 23 6.857 0.27
15:37 1016 30 845 24.95 6.4 43.6 43 -5.4 22.4 6.852 0.27
15:38 1016 30 845 24.95 6.4 43.5 45 -4.7 23.5 6.835 0.269
15:39 1016 30 845 24.95 6.3 43.4 50 -3.4 25.9 6.796 0.268
15:40 1016 30 845 24.95 6.2 43.2 47 -4.2 24.4 6.693 0.264
15:41 1016 30 845 24.95 6.2 43.2 48 -4.1 24.7 6.636 0.261
15:42 1016 30 845 24.95 6.2 43.2 45 -4.9 23.2 6.647 0.262
15:43 1016 30 845 24.95 6.3 43.3 45 -4.7 23.6 6.647 0.262
15:44 1016 30 845 24.95 6.2 43.2 47 -4.1 24.6 6.663 0.262
15:45 1016 30 845 24.95 6.3 43.3 46 -4.4 24 6.697 0.264
15:46 1016 30 845 24.95 6.2 43.2 45 -4.9 23.1 6.652 0.262
15:47 1016 30 845 24.95 6.2 43.1 44 -5.3 22.5 6.617 0.261
15:48 1016 30 845 24.95 6.2 43.2 44 -5.1 22.8 6.6 0.26
15:49 1016 30 845 24.95 6.1 43 45 -4.8 23.3 6.583 0.259
15:50 1016 30 845 24.95 6.1 43 46 -4.7 23.6 6.514 0.256
15:51 1016 30 845 24.95 6.1 43 45 -4.9 23.3 6.497 0.256
15:52 1016 30 845 24.95 6.1 42.9 46 -4.8 23.4 6.514 0.256
15:53 1016 30 845 24.95 6.1 42.9 45 -5 22.9 6.502 0.256
15:54 1016 30 845 24.95 6.1 42.9 43 -5.5 22.1 6.519 0.257
15:55 1016 30 845 24.95 6.1 43 46 -4.6 23.8 6.508 0.256
15:56 1016 30 845 24.95 6.1 42.9 46 -4.8 23.4 6.496 0.256
15:57 1016 30 845 24.95 6.1 42.9 46 -4.7 23.6 6.468 0.255
15:58 1016 30 845 24.95 6 42.9 47 -4.5 24 6.462 0.254
15:59 1016 30 845 24.95 6 42.8 45 -4.9 23.1 6.439 0.254
16:00 1016 30 845 24.95 6 42.8 45 -5.1 22.8 6.428 0.253
16:01 1016 30 845 24.95 6 42.8 47 -4.5 24 6.434 0.253
16:02 1016 30 845 24.95 6 42.8 49 -4 24.7 6.428 0.253
16:03 1016 30 845 24.95 5.9 42.6 48 -4.3 24.2 6.377 0.251
16:04 1015 29.97 845 24.95 5.9 42.6 46 -4.7 23.5 6.326 0.249
16:05 1016 30 845 24.95 5.9 42.6 48 -4.2 24.5 6.337 0.249
16:06 1016 30 845 24.95 5.9 42.6 51 -3.6 25.6 6.331 0.249
16:07 1016 30 845 24.95 5.8 42.5 50 -3.8 25.2 6.275 0.247
16:08 1016 30 845 24.95 5.8 42.5 46 -4.9 23.2 6.275 0.247
16:09 1016 30 845 24.95 5.9 42.6 44 -5.3 22.4 6.303 0.248
16:10 1016 30 845 24.95 6 42.8 48 -4.1 24.6 6.388 0.251
16:11 1016 30 845 24.95 6 42.8 48 -4.1 24.6 6.41 0.252
16:12 1016 30 845 24.95 6 42.7 47 -4.5 24 6.376 0.251
16:13 1016 30 845 24.95 5.9 42.7 49 -4 24.8 6.376 0.251
16:14 1016 30 845 24.95 5.9 42.7 49 -3.9 24.9 6.376 0.251
16:15 1016 30 845 24.95 5.9 42.6 46 -4.8 23.4 6.359 0.25
16:16 1016 30 845 24.95 5.9 42.6 50 -3.7 25.3 6.376 0.251
16:17 1016 30 845 24.95 5.9 42.6 46 -4.8 23.3 6.348 0.25
16:18 1016 30 845 24.95 6 42.7 47 -4.4 24.1 6.365 0.251
16:19 1016 30 845 24.95 6 42.8 46 -4.7 23.5 6.382 0.251
16:20 1016 30 845 24.95 6 42.9 47 -4.5 23.9 6.45 0.254
16:21 1016 30 845 24.95 6 42.8 46 -4.8 23.4 6.427 0.253
16:22 1015 29.97 845 24.95 6 42.9 48 -4.2 24.4 6.421 0.253
16:23 1015 29.97 845 24.95 6 42.8 48 -4.2 24.4 6.41 0.252
16:24 1015 29.97 845 24.95 6 42.8 46 -4.7 23.5 6.41 0.252
16:25 1015 29.97 845 24.95 6 42.9 48 -4.2 24.4 6.41 0.252
16:26 1015 29.97 845 24.95 6 42.9 47 -4.3 24.2 6.433 0.253
16:27 1015 29.97 845 24.95 6 42.8 49 -4 24.8 6.45 0.254
16:28 1015 29.97 845 24.95 6 42.8 45 -4.9 23.1 6.416 0.253
16:29 1015 29.97 845 24.95 6.1 43 45 -5 22.9 6.512 0.256
16:30 1015 29.97 845 24.95 6.2 43.1 45 -4.8 23.4 6.574 0.259
16:31 1015 29.97 845 24.95 6.2 43.2 44 -5.1 22.9 6.619 0.261
16:32 1015 29.97 845 24.95 6.2 43.2 47 -4.3 24.3 6.653 0.262
16:33 1015 29.97 845 24.95 6.2 43.2 47 -4.1 24.6 6.636 0.261
16:34 1015 29.97 845 24.95 6.2 43.1 47 -4.3 24.2 6.597 0.26
16:35 1015 29.97 845 24.95 6.2 43.2 45 -4.8 23.3 6.642 0.261
16:36 1016 30 845 24.95 6.2 43.2 48 -4 24.8 6.704 0.264
16:37 1015 29.97 845 24.95 6.2 43.2 48 -4 24.8 6.659 0.262
16:38 1016 30 845 24.95 6.2 43.1 48 -4 24.7 6.585 0.259
16:39 1015 29.97 845 24.95 6.1 43 49 -3.9 25 6.517 0.257
16:40 1015 29.97 845 24.95 6.1 42.9 47 -4.3 24.3 6.489 0.255
16:41 1015 29.97 845 24.95 6.1 42.9 48 -4.3 24.3 6.489 0.255
16:42 1015 29.97 845 24.95 6.1 43 47 -4.3 24.3 6.484 0.255
16:43 1016 30 845 24.95 6 42.9 49 -4 24.8 6.462 0.254
16:44 1016 30 845 24.95 6 42.8 49 -3.8 25.1 6.434 0.253
16:45 1016 30 845 24.95 6 42.9 47 -4.4 24 6.451 0.254
16:46 1015 29.97 845 24.95 6.1 42.9 49 -3.9 24.9 6.462 0.254
16:47 1016 30 845 24.95 6 42.9 46 -4.7 23.5 6.473 0.255
16:48 1016 30 845 24.95 6.1 43 46 -4.8 23.4 6.569 0.259
16:49 1016 30 845 24.95 6.2 43.1 47 -4.4 24.2 6.575 0.259
16:50 1016 30 845 24.95 6.1 43 48 -4.2 24.5 6.547 0.258
16:51 1016 30 845 24.95 6.1 42.9 50 -3.6 25.5 6.479 0.255
16:52 1016 30 845 24.95 6.1 42.9 48 -4.1 24.6 6.462 0.254
16:53 1015 29.97 845 24.95 6.1 43 45 -4.8 23.3 6.524 0.257
16:54 1015 29.97 845 24.95 6.1 43.1 47 -4.3 24.3 6.569 0.259
16:55 1015 29.97 845 24.95 6.1 43 48 -4.2 24.5 6.575 0.259
16:56 1015 29.97 845 24.95 6.1 43 46 -4.6 23.7 6.524 0.257
16:57 1015 29.97 845 24.95 6.1 43 50 -3.6 25.6 6.535 0.257
16:58 1015 29.97 845 24.95 6.1 43 48 -4.2 24.4 6.473 0.255
16:59 1015 29.97 845 24.95 6.1 43 49 -3.8 25.2 6.54 0.257
17:00 1015 29.97 845 24.95 6.1 43 46 -4.7 23.6 6.546 0.258
17:01 1015 29.97 845 24.95 6.1 43 49 -3.9 25 6.557 0.258
17:02 1015 29.97 845 24.95 6.1 43 50 -3.4 25.9 6.557 0.258
17:03 1015 29.97 845 24.95 6 42.8 50 -3.5 25.6 6.423 0.253
17:04 1015 29.97 845 24.95 5.9 42.7 50 -3.7 25.3 6.366 0.251
17:05 1015 29.97 845 24.95 5.9 42.6 48 -4.2 24.5 6.344 0.25
17:06 1015 29.97 845 24.95 5.9 42.6 50 -3.8 25.2 6.315 0.249
17:07 1015 29.97 845 24.95 5.8 42.5 50 -3.9 25 6.292 0.248
17:08 1015 29.97 845 24.95 5.8 42.4 51 -3.5 25.8 6.23 0.245
17:09 1015 29.97 845 24.95 5.7 42.3 50 -3.9 25 6.145 0.242
17:10 1015 29.97 845 24.95 5.7 42.3 50 -3.9 25.1 6.128 0.241
17:11 1015 29.97 845 24.95 5.7 42.2 50 -3.8 25.1 6.089 0.24
17:12 1015 29.97 845 24.95 5.6 42.1 51 -3.8 25.2 6.061 0.239
17:13 1015 29.97 845 24.95 5.6 42 52 -3.4 25.9 6.011 0.237
17:14 1015 29.97 845 24.95 5.5 41.8 54 -3 26.5 5.915 0.233
17:15 1015 29.97 845 24.95 5.4 41.8 52 -3.5 25.6 5.853 0.23
17:16 1015 29.97 844 24.92 5.5 41.8 50 -4.1 24.7 5.898 0.232
17:17 1015 29.97 845 24.95 5.6 42.1 51 -3.7 25.3 6.006 0.236
17:18 1015 29.97 844 24.92 5.9 42.5 48 -4.4 24.1 6.232 0.245
17:19 1015 29.97 844 24.92 6 42.7 51 -3.5 25.7 6.413 0.252
17:20 1015 29.97 844 24.92 5.9 42.6 51 -3.5 25.6 6.379 0.251
17:21 1015 29.97 844 24.92 5.9 42.7 49 -4 24.8 6.35 0.25
17:22 1015 29.97 845 24.95 6 42.9 48 -4.1 24.6 6.429 0.253
17:23 1015 29.97 845 24.95 6.1 42.9 50 -3.6 25.6 6.497 0.256
17:24 1015 29.97 845 24.95 6 42.8 48 -4.2 24.4 6.44 0.254
17:25 1015 29.97 845 24.95 6.1 43 45 -4.9 23.2 6.513 0.256
17:26 1015 29.97 845 24.95 6.2 43.2 49 -3.6 25.5 6.626 0.261
17:27 1015 29.97 845 24.95 6.2 43.2 48 -4.1 24.6 6.632 0.261
17:28 1015 29.97 845 24.95 6.2 43.1 52 -3 26.6 6.598 0.26
17:29 1015 29.97 845 24.95 6 42.8 47 -4.4 24.1 6.418 0.253
17:30 1015 29.97 845 24.95 5.9 42.6 49 -4 24.8 6.311 0.248
17:31 1015 29.97 845 24.95 5.8 42.5 48 -4.2 24.4 6.214 0.245
17:32 1015 29.97 845 24.95 5.8 42.4 47 -4.7 23.5 6.181 0.243
17:33 1015 29.97 845 24.95 5.7 42.3 50 -3.8 25.2 6.17 0.243
17:34 1015 29.97 845 24.95 5.6 42.1 51 -3.6 25.5 6.034 0.238
17:35 1015 29.97 845 24.95 5.5 41.9 51 -3.9 24.9 5.916 0.233
17:36 1015 29.97 845 24.95 5.5 41.9 51 -3.9 24.9 5.871 0.231
17:37 1015 29.97 845 24.95 5.4 41.7 52 -3.7 25.3 5.848 0.23
17:38 1015 29.97 845 24.95 5.3 41.6 53 -3.5 25.7 5.798 0.228
17:39 1015 29.97 845 24.95 5.3 41.5 54 -3.4 25.9 5.725 0.225
17:40 1015 29.97 845 24.95 5.2 41.4 53 -3.7 25.4 5.651 0.222
17:41 1015 29.97 845 24.95 5.3 41.5 52 -3.8 25.1 5.674 0.223
17:42 1015 29.97 845 24.95 5.3 41.6 54 -3.3 26 5.742 0.226
17:43 1015 29.97 845 24.95 5.3 41.5 54 -3.3 26 5.725 0.225
17:44 1015 29.97 845 24.95 5.4 41.6 54 -3.3 26.1 5.765 0.227
17:45 1015 29.97 844 24.92 5.4 41.7 53 -3.4 25.8 5.85 0.23
17:46 1015 29.97 844 24.92 5.5 41.8 52 -3.6 25.6 5.884 0.232
17:47 1015 29.97 844 24.92 5.6 42.1 53 -3.3 26.1 5.958 0.235
17:48 1015 29.97 844 24.92 5.6 42.1 52 -3.4 25.9 6.077 0.239
17:49 1015 29.97 844 24.92 5.7 42.2 54 -3 26.6 6.094 0.24
17:50 1015 29.97 844 24.92 5.6 42.2 52 -3.4 25.8 6.083 0.239
17:51 1015 29.97 844 24.92 5.7 42.3 50 -3.8 25.1 6.134 0.241
17:52 1015 29.97 844 24.92 5.8 42.4 51 -3.5 25.7 6.19 0.244
17:53 1015 29.97 844 24.92 5.9 42.6 47 -4.6 23.8 6.338 0.25
17:54 1015 29.97 844 24.92 6.1 43 47 -4.3 24.2 6.524 0.257
17:55 1015 29.97 844 24.92 6.2 43.1 48 -3.9 25 6.621 0.261
17:56 1015 29.97 844 24.92 6.2 43.2 48 -3.9 25 6.609 0.26
17:57 1015 29.97 844 24.92 6.2 43.2 48 -4.1 24.6 6.649 0.262
17:58 1015 29.97 844 24.92 6.2 43.2 48 -4 24.8 6.677 0.263
17:59 1015 29.97 844 24.92 6.3 43.3 47 -4.1 24.6 6.711 0.264
18:00 1015 29.97 844 24.92 6.3 43.3 49 -3.7 25.3 6.734 0.265
18:01 1015 29.97 844 24.92 6.3 43.3 49 -3.7 25.4 6.728 0.265
18:02 1015 29.97 844 24.92 6.4 43.5 46 -4.3 24.3 6.762 0.266
18:03 1015 29.97 844 24.92 6.4 43.6 49 -3.5 25.7 6.847 0.27
18:04 1015 29.97 844 24.92 6.5 43.7 49 -3.4 25.8 6.927 0.273
18:05 1015 29.97 844 24.92 6.6 43.8 47 -3.9 25 6.961 0.274
18:06 1015 29.97 844 24.92 6.6 44 46 -4.1 24.6 7.03 0.277
18:07 1015 29.97 844 24.92 6.8 44.3 47 -3.6 25.5 7.25 0.285
18:08 1015 29.97 844 24.92 6.9 44.4 46 -4 24.7 7.32 0.288
18:09 1015 29.97 844 24.92 6.9 44.5 46 -4 24.8 7.39 0.291
18:10 1015 29.97 844 24.92 7 44.5 48 -3.2 26.2 7.37 0.29
18:11 1015 29.97 844 24.92 7 44.6 46 -3.9 24.9 7.42 0.292
18:12 1015 29.97 844 24.92 7 44.6 44 -4.3 24.3 7.41 0.292
18:13 1015 29.97 844 24.92 7 44.6 43 -4.7 23.5 7.42 0.292
18:14 1015 29.97 844 24.92 7 44.7 45 -4 24.8 7.46 0.294
18:15 1015 29.97 844 24.92 6.9 44.5 46 -4 24.8 7.36 0.29
18:16 1015 29.97 844 24.92 6.9 44.4 45 -4.1 24.6 7.31 0.288
18:17 1015 29.97 844 24.92 6.8 44.3 47 -3.7 25.3 7.24 0.285
18:18 1015 29.97 844 24.92 6.8 44.2 49 -3.3 26.1 7.22 0.284
18:19 1015 29.97 844 24.92 6.7 44.1 48 -3.4 25.8 7.12 0.28
18:20 1015 29.97 844 24.92 6.7 44 47 -3.9 25 7.09 0.279
18:21 1015 29.97 844 24.92 6.7 44 47 -3.8 25.1 7.05 0.278
18:22 1015 29.97 844 24.92 6.6 43.9 46 -4 24.7 7.02 0.276
18:23 1015 29.97 844 24.92 6.6 43.8 49 -3.2 26.2 7.01 0.276
18:24 1015 29.97 844 24.92 6.5 43.7 50 -3.1 26.5 6.908 0.272
18:25 1015 29.97 844 24.92 6.4 43.5 51 -3.1 26.5 6.818 0.268
18:26 1015 29.97 844 24.92 6.4 43.4 50 -3.4 25.8 6.733 0.265
18:27 1015 29.97 844 24.92 6.3 43.3 49 -3.6 25.6 6.733 0.265
18:28 1015 29.97 844 24.92 6.4 43.5 48 -3.7 25.3 6.801 0.268
18:29 1015 29.97 844 24.92 6.4 43.5 52 -2.8 26.9 6.824 0.269
18:30 1015 29.97 844 24.92 6.4 43.5 48 -3.8 25.1 6.779 0.267
18:31 1015 29.97 844 24.92 6.4 43.6 49 -3.6 25.5 6.834 0.269
18:32 1015 29.97 844 24.92 6.5 43.6 47 -3.9 25 6.913 0.272
18:33 1015 29.97 844 24.92 6.5 43.7 49 -3.5 25.6 6.896 0.271
18:34 1015 29.97 844 24.92 6.5 43.6 47 -4 24.8 6.884 0.271
18:35 1015 29.97 844 24.92 6.6 43.9 47 -3.9 24.9 6.969 0.274
18:36 1015 29.97 844 24.92 6.7 44 47 -3.9 25 7.11 0.28
18:37 1015 29.97 844 24.92 6.6 44 50 -3.1 26.4 7.06 0.278
18:38 1015 29.97 844 24.92 6.6 43.8 50 -3 26.6 7.01 0.276
18:39 1015 29.97 844 24.92 6.5 43.6 50 -3.3 26.1 6.913 0.272
18:40 1015 29.97 844 24.92 6.4 43.5 53 -2.5 27.5 6.8 0.268
18:41 1015 29.97 844 24.92 6.2 43.2 50 -3.4 25.8 6.715 0.264
18:42 1015 29.97 844 24.92 6.2 43.1 51 -3.1 26.4 6.591 0.259
18:43 1015 29.97 844 24.92 6.1 42.9 52 -2.9 26.7 6.493 0.256
18:44 1015 29.97 844 24.92 6.1 42.9 48 -4.2 24.4 6.471 0.255
18:45 1015 29.97 844 24.92 6.2 43.1 49 -3.8 25.2 6.567 0.259
18:46 1015 29.97 844 24.92 6.1 43.1 53 -2.8 27 6.585 0.259
18:47 1015 29.97 844 24.92 6 42.8 52 -3 26.5 6.449 0.254
18:48 1015 29.97 844 24.92 6 42.7 52 -3.2 26.3 6.392 0.252
18:49 1015 29.97 844 24.92 6 42.7 53 -2.9 26.8 6.353 0.25
18:50 1015 29.97 844 24.92 5.9 42.6 51 -3.4 25.8 6.331 0.249
18:51 1015 29.97 844 24.92 5.9 42.6 51 -3.6 25.5 6.296 0.248
18:52 1015 29.97 844 24.92 5.8 42.5 50 -3.7 25.4 6.273 0.247
18:53 1015 29.97 844 24.92 5.9 42.5 50 -3.8 25.2 6.267 0.247
18:54 1015 29.97 844 24.92 5.8 42.5 50 -3.9 25 6.239 0.246
18:55 1015 29.97 844 24.92 5.8 42.4 50 -4 24.9 6.193 0.244
18:56 1015 29.97 844 24.92 5.8 42.4 52 -3.4 25.9 6.221 0.245
18:57 1015 29.97 844 24.92 5.8 42.4 50 -3.7 25.3 6.153 0.242
18:58 1015 29.97 844 24.92 5.7 42.3 52 -3.4 25.8 6.113 0.241
18:59 1015 29.97 844 24.92 5.7 42.2 48 -4.4 24.1 6.118 0.241
19:00 1015 29.97 844 24.92 5.8 42.4 51 -3.5 25.7 6.152 0.242
19:01 1015 29.97 844 24.92 5.7 42.3 52 -3.4 26 6.118 0.241
19:02 1015 29.97 844 24.92 5.6 42.1 52 -3.4 25.9 6.022 0.237
19:03 1015 29.97 844 24.92 5.5 41.9 54 -3.1 26.3 5.954 0.234
19:04 1015 29.97 844 24.92 5.3 41.6 56 -2.7 27.1 5.812 0.229
19:05 1015 29.97 844 24.92 5.2 41.3 56 -2.9 26.8 5.642 0.222
19:06 1015 29.97 844 24.92 5.1 41.1 56 -3.1 26.5 5.53 0.218
19:07 1015 29.97 844 24.92 5 41 57 -2.9 26.8 5.44 0.214
19:08 1015 29.97 844 24.92 5 41 56 -3.1 26.5 5.394 0.212
19:09 1015 29.97 844 24.92 4.9 40.8 57 -2.9 26.8 5.383 0.212
19:10 1015 29.97 844 24.92 4.9 40.8 56 -3.2 26.2 5.297 0.209
19:11 1015 29.97 844 24.92 4.9 40.8 58 -2.8 27 5.303 0.209
19:12 1015 29.97 844 24.92 4.8 40.7 58 -2.7 27.2 5.264 0.207
19:13 1015 29.97 844 24.92 4.8 40.6 56 -3.3 26.1 5.242 0.206
19:14 1015 29.97 844 24.92 4.8 40.7 56 -3.2 26.2 5.265 0.207
19:15 1015 29.97 844 24.92 4.9 40.8 55 -3.3 26.1 5.258 0.207
19:16 1015 29.97 844 24.92 4.9 40.9 55 -3.5 25.8 5.309 0.209
19:17 1015 29.97 844 24.92 5 40.9 55 -3.3 26.1 5.388 0.212
19:18 1015 29.97 844 24.92 4.9 40.8 56 -3.1 26.4 5.338 0.21
19:19 1015 29.97 844 24.92 4.8 40.7 56 -3.1 26.4 5.293 0.208
19:20 1015 29.97 844 24.92 4.8 40.6 57 -3 26.6 5.231 0.206
19:21 1015 29.97 844 24.92 4.7 40.5 58 -2.8 27 5.141 0.202
19:22 1015 29.97 844 24.92 4.7 40.4 57 -3.1 26.5 5.09 0.2
19:23 1015 29.97 844 24.92 4.6 40.3 58 -3 26.7 5.056 0.199
19:24 1015 29.97 844 24.92 4.6 40.2 58 -3.1 26.5 5 0.197
19:25 1015 29.97 844 24.92 4.6 40.3 56 -3.5 25.7 5.006 0.197
19:26 1015 29.97 844 24.92 4.7 40.5 54 -3.7 25.3 5.068 0.2
19:27 1015 29.97 844 24.92 4.9 40.8 54 -3.6 25.5 5.238 0.206
19:28 1015 29.97 844 24.92 4.9 40.8 55 -3.5 25.8 5.301 0.209
19:29 1015 29.97 844 24.92 4.8 40.7 56 -3.2 26.2 5.278 0.208
19:30 1015 29.97 844 24.92 4.8 40.6 57 -3.1 26.4 5.188 0.204
19:31 1015 29.97 844 24.92 4.7 40.4 55 -3.5 25.6 5.154 0.203
19:32 1015 29.97 844 24.92 4.8 40.6 54 -3.6 25.5 5.182 0.204
19:33 1015 29.97 844 24.92 4.9 40.8 53 -3.8 25.2 5.228 0.206
19:34 1015 29.97 844 24.92 4.9 40.9 54 -3.6 25.5 5.307 0.209
19:35 1015 29.97 844 24.92 4.9 40.9 54 -3.5 25.7 5.307 0.209
19:36 1015 29.97 844 24.92 4.9 40.8 55 -3.3 26 5.29 0.208
19:37 1015 29.97 844 24.92 4.9 40.8 54 -3.7 25.4 5.285 0.208
19:38 1015 29.97 844 24.92 5 40.9 52 -4 24.7 5.336 0.21
19:39 1015 29.97 844 24.92 5 41 53 -3.8 25.2 5.398 0.213
19:40 1015 29.97 844 24.92 5 40.9 54 -3.6 25.6 5.375 0.212
19:41 1015 29.97 844 24.92 4.9 40.8 55 -3.3 26 5.325 0.21
19:42 1015 29.97 844 24.92 4.8 40.7 55 -3.5 25.7 5.229 0.206
19:43 1015 29.97 844 24.92 4.8 40.6 56 -3.4 26 5.166 0.203
19:44 1015 29.97 844 24.92 4.7 40.5 54 -3.8 25.1 5.127 0.202
19:45 1015 29.97 844 24.92 4.9 40.9 51 -4.3 24.2 5.302 0.209
19:46 1015 29.97 844 24.92 5.1 41.2 53 -3.7 25.3 5.523 0.217
19:47 1015 29.97 844 24.92 5 41.1 55 -3.2 26.2 5.489 0.216
19:48 1015 29.97 844 24.92 4.9 40.8 55 -3.3 26.1 5.302 0.209
19:49 1015 29.97 844 24.92 4.8 40.6 55 -3.5 25.7 5.195 0.205
19:50 1015 29.97 844 24.92 4.7 40.5 55 -3.5 25.7 5.144 0.203
19:51 1015 29.97 844 24.92 4.7 40.5 56 -3.4 25.9 5.172 0.204
19:52 1015 29.97 844 24.92 4.6 40.4 57 -3 26.5 5.099 0.201
19:53 1015 29.97 844 24.92 4.5 40.2 55 -3.7 25.4 4.969 0.196
19:54 1015 29.97 844 24.92 4.8 40.6 52 -4.3 24.3 5.15 0.203
19:55 1015 29.97 844 24.92 5 41.1 53 -3.9 25 5.416 0.213
19:56 1015 29.97 844 24.92 5.2 41.3 50 -4.3 24.3 5.529 0.218
19:57 1015 29.97 844 24.92 5.3 41.5 51 -4 24.7 5.659 0.223
19:58 1015 29.97 844 24.92 5.3 41.5 51 -4.1 24.6 5.687 0.224
19:59 1015 29.97 844 24.92 5.3 41.6 49 -4.4 24.1 5.693 0.224
20:00 1014 29.94 844 24.92 5.4 41.7 52 -3.6 25.5 5.778 0.227
20:01 1014 29.94 844 24.92 5.3 41.5 54 -3.3 26 5.744 0.226
20:02 1015 29.97 844 24.92 5.2 41.3 52 -3.9 25 5.574 0.219
20:03 1015 29.97 844 24.92 5.1 41.2 55 -3.2 26.2 5.529 0.218
20:04 1015 29.97 844 24.92 5 41.1 54 -3.4 25.9 5.438 0.214
20:05 1015 29.97 844 24.92 5 41 54 -3.6 25.5 5.388 0.212
20:06 1015 29.97 844 24.92 4.9 40.9 54 -3.7 25.3 5.342 0.21
20:07 1015 29.97 844 24.92 5 41 54 -3.4 25.9 5.416 0.213
20:08 1015 29.97 844 24.92 4.9 40.9 56 -3.1 26.4 5.422 0.213
20:09 1015 29.97 844 24.92 4.8 40.6 56 -3.2 26.3 5.24 0.206
20:10 1015 29.97 844 24.92 4.7 40.5 56 -3.3 26.1 5.133 0.202
20:11 1015 29.97 844 24.92 4.6 40.3 57 -3.2 26.3 5.031 0.198
20:12 1015 29.97 844 24.92 4.6 40.2 58 -3.1 26.5 4.969 0.196
20:13 1015 29.97 844 24.92 4.5 40.1 58 -3 26.5 4.946 0.195
20:14 1015 29.97 844 24.92 4.5 40.1 57 -3.2 26.3 4.907 0.193
20:15 1014 29.94 844 24.92 4.6 40.2 57 -3.2 26.3 4.946 0.195
20:16 1014 29.94 844 24.92 4.6 40.3 58 -2.9 26.7 4.986 0.196
20:17 1014 29.94 844 24.92 4.6 40.2 58 -3 26.6 4.986 0.196
20:18 1014 29.94 844 24.92 4.5 40.2 57 -3.3 26 4.957 0.195
20:19 1014 29.94 844 24.92 4.6 40.3 57 -3.3 26.1 5.02 0.198
20:20 1014 29.94 844 24.92 4.7 40.4 57 -3.2 26.3 5.037 0.198
20:21 1014 29.94 844 24.92 4.7 40.4 57 -3 26.5 5.133 0.202
20:22 1014 29.94 844 24.92 4.8 40.6 55 -3.4 25.9 5.167 0.203
20:23 1014 29.94 844 24.92 4.9 40.8 57 -3 26.6 5.291 0.208
20:24 1014 29.94 844 24.92 4.9 40.8 55 -3.3 26 5.314 0.209
20:25 1014 29.94 844 24.92 5.1 41.1 55 -3.1 26.4 5.489 0.216
20:26 1014 29.94 844 24.92 5.1 41.2 56 -3 26.5 5.506 0.217
20:27 1014 29.94 844 24.92 5 41 58 -2.6 27.3 5.41 0.213
20:28 1014 29.94 844 24.92 4.6 40.4 60 -2.5 27.4 5.122 0.202
20:29 1014 29.94 844 24.92 4.5 40.1 58 -3.1 26.5 4.918 0.194
20:30 1014 29.94 844 24.92 4.6 40.4 56 -3.4 25.9 5.031 0.198
20:31 1014 29.94 844 24.92 4.7 40.5 58 -2.9 26.8 5.156 0.203
20:32 1014 29.94 844 24.92 4.7 40.4 58 -2.9 26.8 5.099 0.201
20:33 1014 29.94 844 24.92 4.6 40.3 57 -3.2 26.2 5.008 0.197
20:34 1014 29.94 844 24.92 4.6 40.4 58 -2.9 26.8 5.003 0.197
20:35 1014 29.94 844 24.92 4.6 40.2 59 -2.8 27 4.975 0.196
20:36 1014 29.94 844 24.92 4.5 40.1 59 -2.8 27 4.935 0.194
20:37 1014 29.94 844 24.92 4.4 40 59 -2.8 27 4.85 0.191
20:38 1014 29.94 844 24.92 4.3 39.8 61 -2.5 27.6 4.782 0.188
20:39 1014 29.94 844 24.92 4.2 39.6 61 -2.5 27.5 4.686 0.184
20:40 1014 29.94 844 24.92 4.1 39.4 62 -2.4 27.6 4.578 0.18
20:41 1014 29.94 844 24.92 4 39.2 62 -2.7 27.2 4.499 0.177
20:42 1014 29.94 844 24.92 4 39.3 61 -2.7 27.1 4.414 0.174
20:43 1014 29.94 844 24.92 4 39.2 61 -2.8 27 4.437 0.175
20:44 1014 29.94 844 24.92 4 39.2 63 -2.5 27.6 4.42 0.174
20:45 1014 29.94 844 24.92 3.9 39.1 63 -2.4 27.6 4.386 0.173
20:46 1014 29.94 844 24.92 3.9 38.9 63 -2.5 27.5 4.278 0.168
20:47 1014 29.94 844 24.92 3.8 38.9 64 -2.4 27.7 4.256 0.168
20:48 1014 29.94 844 24.92 3.7 38.7 65 -2.2 28 4.194 0.165
20:49 1015 29.97 844 24.92 3.6 38.5 66 -2.1 28.3 4.086 0.161
20:50 1014 29.94 844 24.92 3.5 38.3 67 -2.1 28.2 3.978 0.157
20:51 1014 29.94 844 24.92 3.4 38.1 66 -2.4 27.6 3.882 0.153
20:52 1014 29.94 844 24.92 3.5 38.2 65 -2.5 27.5 3.894 0.153
20:53 1014 29.94 844 24.92 3.6 38.4 66 -2.3 27.9 3.939 0.155
20:54 1015 29.97 844 24.92 3.5 38.4 65 -2.4 27.7 3.973 0.156
20:55 1015 29.97 844 24.92 3.5 38.3 66 -2.2 28 3.95 0.156
20:56 1015 29.97 844 24.92 3.5 38.2 66 -2.3 27.9 3.933 0.155
20:57 1014 29.94 844 24.92 3.5 38.2 67 -2.2 28.1 3.848 0.151
20:58 1014 29.94 844 24.92 3.4 38.1 66 -2.3 27.9 3.78 0.149
20:59 1014 29.94 844 24.92 3.3 38 65 -2.6 27.4 3.763 0.148
21:00 1015 29.97 844 24.92 3.4 38.2 64 -2.8 26.9 3.797 0.149
21:01 1015 29.97 844 24.92 3.6 38.4 64 -2.6 27.4 3.922 0.154
21:02 1015 29.97 844 24.92 3.6 38.5 65 -2.4 27.6 3.978 0.157
21:03 1014 29.94 844 24.92 3.6 38.4 66 -2.2 28 3.99 0.157
21:04 1014 29.94 844 24.92 3.5 38.2 66 -2.2 28.1 3.929 0.155
21:05 1014 29.94 844 24.92 3.4 38.1 65 -2.5 27.6 3.838 0.151
21:06 1015 29.97 844 24.92 3.4 38.2 66 -2.3 27.8 3.81 0.15
21:07 1015 29.97 844 24.92 3.4 38.1 66 -2.3 27.9 3.816 0.15
21:08 1014 29.94 844 24.92 3.4 38.1 66 -2.4 27.7 3.776 0.149
21:09 1014 29.94 844 24.92 3.4 38.1 65 -2.6 27.4 3.781 0.149
21:10 1014 29.94 844 24.92 3.4 38.2 65 -2.6 27.3 3.81 0.15
21:11 1014 29.94 844 24.92 3.5 38.2 65 -2.6 27.4 3.878 0.153
21:12 1014 29.94 844 24.92 3.5 38.3 64 -2.7 27.2 3.89 0.153
21:13 1014 29.94 844 24.92 3.6 38.5 63 -2.7 27.2 3.975 0.156
21:14 1014 29.94 844 24.92 3.7 38.7 64 -2.5 27.5 4.105 0.162
21:15 1014 29.94 844 24.92 3.9 39 57 -3.9 25.1 4.298 0.169
21:16 1014 29.94 844 24.92 4.3 39.7 63 -2.1 28.2 4.701 0.185
21:17 1014 29.94 844 24.92 4 39.2 64 -2.1 28.2 4.508 0.177
21:18 1014 29.94 844 24.92 3.8 38.8 65 -2.2 28 4.265 0.168
21:19 1014 29.94 844 24.92 3.7 38.6 62 -2.8 26.9 4.101 0.161
21:20 1014 29.94 844 24.92 3.9 39 60 -3.1 26.5 4.266 0.168
21:21 1014 29.94 844 24.92 4.1 39.5 60 -2.9 26.8 4.492 0.177
21:22 1014 29.94 844 24.92 4.2 39.6 62 -2.5 27.5 4.589 0.181
21:23 1014 29.94 844 24.92 4.1 39.4 62 -2.4 27.7 4.578 0.18
21:24 1014 29.94 844 24.92 4 39.2 64 -2.3 27.9 4.487 0.177
21:25 1014 29.94 844 24.92 3.9 39 63 -2.6 27.4 4.34 0.171
21:26 1014 29.94 844 24.92 4 39.1 63 -2.5 27.5 4.386 0.173
21:27 1014 29.94 844 24.92 4.1 39.4 61 -2.7 27.2 4.482 0.176
21:28 1014 29.94 844 24.92 4.2 39.6 62 -2.4 27.7 4.624 0.182
21:29 1014 29.94 844 24.92 4.1 39.5 63 -2.3 27.8 4.573 0.18
21:30 1014 29.94 843 24.89 4.1 39.3 64 -2.1 28.3 4.528 0.178
21:31 1014 29.94 843 24.89 4.1 39.3 62 -2.7 27.2 4.46 0.176
21:32 1014 29.94 843 24.89 4.3 39.7 60 -2.7 27.1 4.652 0.183
21:33 1014 29.94 843 24.89 4.5 40 60 -2.5 27.5 4.818 0.19
21:34 1014 29.94 843 24.89 4.4 40 60 -2.6 27.4 4.886 0.192
21:35 1014 29.94 843 24.89 4.5 40 60 -2.5 27.4 4.869 0.192
21:36 1014 29.94 843 24.89 4.5 40 60 -2.6 27.4 4.837 0.19
21:37 1014 29.94 843 24.89 4.5 40 59 -2.8 27 4.837 0.19
21:38 1014 29.94 843 24.89 4.5 40.1 60 -2.6 27.3 4.877 0.192
21:39 1014 29.94 843 24.89 4.5 40.1 60 -2.5 27.6 4.917 0.194
21:40 1014 29.94 843 24.89 4.5 40.1 61 -2.5 27.5 4.883 0.192
21:41 1014 29.94 843 24.89 4.5 40.1 60 -2.5 27.4 4.917 0.194
21:42 1014 29.94 844 24.92 4.5 40.1 60 -2.5 27.5 4.935 0.194
21:43 1014 29.94 844 24.92 4.7 40.5 58 -2.8 27 5.116 0.201
21:44 1014 29.94 844 24.92 4.9 40.9 58 -2.6 27.3 5.315 0.209
21:45 1014 29.94 844 24.92 5 41 58 -2.7 27.2 5.383 0.212
21:46 1014 29.94 844 24.92 4.9 40.8 60 -2.3 27.9 5.355 0.211
21:47 1014 29.94 844 24.92 4.8 40.6 60 -2.3 27.8 5.23 0.206
21:48 1014 29.94 843 24.89 4.8 40.6 60 -2.4 27.7 5.156 0.203
21:49 1014 29.94 843 24.89 4.9 40.9 58 -2.7 27.1 5.292 0.208
21:50 1014 29.94 843 24.89 5.2 41.3 55 -3.2 26.3 5.563 0.219
21:51 1014 29.94 843 24.89 5.5 41.9 56 -2.6 27.3 5.863 0.231
21:52 1014 29.94 843 24.89 5.5 41.9 56 -2.5 27.5 5.902 0.232
21:53 1014 29.94 843 24.89 5.5 41.9 56 -2.5 27.4 5.896 0.232
21:54 1014 29.94 844 24.92 5.4 41.7 57 -2.4 27.7 5.834 0.23
21:55 1014 29.94 844 24.92 5.3 41.5 58 -2.4 27.7 5.709 0.225
21:56 1014 29.94 844 24.92 5.2 41.4 58 -2.4 27.7 5.602 0.221
21:57 1014 29.94 844 24.92 5.2 41.4 56 -2.8 26.9 5.586 0.22
21:58 1014 29.94 844 24.92 5.4 41.8 54 -3.2 26.3 5.846 0.23
21:59 1014 29.94 844 24.92 5.7 42.3 54 -2.8 26.9 6.117 0.241
22:00 1014 29.94 844 24.92 5.7 42.2 56 -2.3 27.8 6.111 0.241
22:01 1014 29.94 844 24.92 5.5 41.9 57 -2.3 27.8 5.947 0.234
22:02 1014 29.94 844 24.92 5.3 41.5 59 -2 28.4 5.721 0.225
22:03 1014 29.94 844 24.92 5 41.1 60 -2.2 28.1 5.518 0.217
22:04 1014 29.94 844 24.92 5 40.9 57 -2.8 27 5.348 0.211
22:05 1014 29.94 843 24.89 5 41.1 60 -2.2 28.1 5.405 0.213
22:06 1014 29.94 843 24.89 4.9 40.9 56 -3 26.6 5.366 0.211
22:07 1014 29.94 843 24.89 5.2 41.3 56 -3 26.7 5.53 0.218
22:08 1014 29.94 843 24.89 5.3 41.6 57 -2.6 27.3 5.716 0.225
22:09 1014 29.94 843 24.89 5.3 41.6 58 -2.3 27.9 5.75 0.226
22:10 1014 29.94 843 24.89 5.3 41.6 57 -2.4 27.7 5.739 0.226
22:11 1014 29.94 843 24.89 5.3 41.5 58 -2.2 28 5.676 0.223
22:12 1014 29.94 843 24.89 5.2 41.3 58 -2.4 27.6 5.602 0.221
22:13 1014 29.94 844 24.92 5.1 41.2 59 -2.3 27.9 5.5 0.217
22:14 1014 29.94 844 24.92 5.1 41.1 59 -2.4 27.7 5.443 0.214
22:15 1014 29.94 844 24.92 5 41 59 -2.3 27.9 5.426 0.214
22:16 1014 29.94 844 24.92 5 40.9 59 -2.4 27.6 5.386 0.212
22:17 1014 29.94 844 24.92 5 41 59 -2.4 27.7 5.403 0.213
22:18 1014 29.94 844 24.92 5 41 57 -2.7 27.1 5.363 0.211
22:19 1014 29.94 843 24.89 5 41 58 -2.6 27.4 5.397 0.212
22:20 1014 29.94 843 24.89 5 41.1 58 -2.6 27.2 5.408 0.213
22:21 1014 29.94 843 24.89 5 41 59 -2.4 27.7 5.403 0.213
22:22 1014 29.94 843 24.89 4.9 40.9 57 -2.8 27 5.363 0.211
22:23 1014 29.94 843 24.89 4.9 40.9 58 -2.7 27.2 5.306 0.209
22:24 1014 29.94 843 24.89 4.9 40.8 58 -2.6 27.3 5.351 0.211
22:25 1014 29.94 843 24.89 4.9 40.9 58 -2.5 27.4 5.306 0.209
22:26 1014 29.94 843 24.89 4.9 40.9 59 -2.4 27.6 5.328 0.21
22:27 1014 29.94 843 24.89 4.9 40.8 59 -2.5 27.5 5.277 0.208
22:28 1014 29.94 843 24.89 4.9 40.8 59 -2.5 27.5 5.255 0.207
22:29 1014 29.94 843 24.89 4.9 40.8 58 -2.7 27.1 5.243 0.206
22:30 1014 29.94 843 24.89 4.9 40.8 57 -2.9 26.8 5.289 0.208
22:31 1014 29.94 843 24.89 5.1 41.1 56 -2.9 26.7 5.419 0.213
22:32 1014 29.94 843 24.89 5.2 41.3 56 -3 26.6 5.554 0.219
22:33 1014 29.94 843 24.89 5.3 41.5 56 -2.8 26.9 5.679 0.224
22:34 1014 29.94 843 24.89 5.3 41.6 56 -2.7 27.1 5.713 0.225
22:35 1014 29.94 843 24.89 5.3 41.5 57 -2.6 27.4 5.702 0.224
22:36 1014 29.94 843 24.89 5.2 41.4 57 -2.5 27.5 5.651 0.222
22:37 1014 29.94 843 24.89 5.1 41.2 58 -2.5 27.6 5.566 0.219
22:38 1014 29.94 843 24.89 5 41.1 57 -2.9 26.9 5.413 0.213
22:39 1014 29.94 843 24.89 5.1 41.2 56 -2.9 26.8 5.52 0.217
22:40 1014 29.94 843 24.89 5.2 41.3 57 -2.7 27.1 5.594 0.22
22:41 1014 29.94 843 24.89 5.1 41.3 58 -2.5 27.4 5.52 0.217
22:42 1014 29.94 843 24.89 5 41 57 -2.8 26.9 5.447 0.214
22:43 1014 29.94 843 24.89 4.9 40.9 58 -2.7 27.2 5.373 0.212
22:44 1014 29.94 843 24.89 4.9 40.8 58 -2.6 27.2 5.328 0.21
22:45 1014 29.94 843 24.89 4.8 40.6 58 -2.7 27.1 5.231 0.206
22:46 1014 29.94 843 24.89 4.7 40.5 58 -2.8 27 5.158 0.203
22:47 1014 29.94 843 24.89 4.7 40.4 57 -3 26.6 5.062 0.199
22:48 1014 29.94 843 24.89 4.7 40.5 57 -3.1 26.5 5.084 0.2
22:49 1014 29.94 843 24.89 4.8 40.6 57 -3 26.6 5.146 0.203
22:50 1014 29.94 843 24.89 4.9 40.8 55 -3.4 25.9 5.197 0.205
22:51 1014 29.94 843 24.89 5.1 41.1 55 -3.2 26.3 5.396 0.212
22:52 1014 29.94 843 24.89 5.1 41.2 55 -3.3 26.1 5.469 0.215
22:53 1014 29.94 843 24.89 5.2 41.3 54 -3.3 26 5.543 0.218
22:54 1014 29.94 843 24.89 5.2 41.4 54 -3.2 26.2 5.599 0.22
22:55 1014 29.94 843 24.89 5.2 41.3 55 -3.2 26.3 5.594 0.22
22:56 1014 29.94 843 24.89 5.2 41.3 55 -3.1 26.4 5.526 0.218
22:57 1014 29.94 843 24.89 5.1 41.2 55 -3.2 26.3 5.486 0.216
22:58 1014 29.94 843 24.89 5.1 41.1 55 -3.2 26.3 5.429 0.214
22:59 1014 29.94 843 24.89 5 41 56 -3.1 26.4 5.395 0.212
23:00 1013 29.91 843 24.89 4.9 40.9 56 -3 26.6 5.277 0.208
23:01 1013 29.91 843 24.89 4.7 40.5 57 -3 26.6 5.129 0.202
23:02 1013 29.91 843 24.89 4.7 40.5 58 -2.9 26.7 5.044 0.199
23:03 1013 29.91 842 24.86 4.6 40.3 58 -2.8 26.9 4.994 0.197
23:04 1013 29.91 842 24.86 4.5 40.1 59 -2.7 27.1 4.892 0.193
23:05 1013 29.91 842 24.86 4.4 39.9 59 -2.9 26.7 4.784 0.188
23:06 1013 29.91 842 24.86 4.4 39.9 59 -2.8 26.9 4.739 0.187
23:07 1013 29.91 842 24.86 4.3 39.8 60 -2.8 26.9 4.711 0.185
23:08 1013 29.91 842 24.86 4.3 39.7 60 -2.8 26.9 4.677 0.184
23:09 1013 29.91 842 24.86 4.2 39.6 60 -2.9 26.8 4.614 0.182
23:10 1013 29.91 842 24.86 4.2 39.5 60 -2.8 26.9 4.614 0.182
23:11 1013 29.91 842 24.86 4.2 39.5 60 -2.8 26.9 4.597 0.181
23:12 1013 29.91 842 24.86 4.2 39.5 61 -2.7 27.2 4.569 0.18
23:13 1013 29.91 842 24.86 4.2 39.5 62 -2.5 27.5 4.563 0.18
23:14 1013 29.91 842 24.86 4.2 39.5 62 -2.5 27.5 4.62 0.182
23:15 1013 29.91 842 24.86 4.2 39.5 62 -2.5 27.5 4.603 0.181
23:16 1013 29.91 842 24.86 4.2 39.6 62 -2.5 27.5 4.637 0.183
23:17 1013 29.91 842 24.86 4.2 39.6 61 -2.6 27.4 4.62 0.182
23:18 1013 29.91 842 24.86 4.3 39.7 61 -2.6 27.3 4.654 0.183
23:19 1013 29.91 842 24.86 4.4 39.8 60 -2.6 27.2 4.784 0.188
23:20 1013 29.91 842 24.86 4.5 40 59 -2.8 27 4.846 0.191
23:21 1013 29.91 842 24.86 4.5 40.2 60 -2.5 27.5 4.932 0.194
23:22 1013 29.91 842 24.86 4.6 40.2 60 -2.5 27.6 4.989 0.196
23:23 1013 29.91 842 24.86 4.6 40.3 61 -2.3 27.9 5.001 0.197
23:24 1013 29.91 842 24.86 4.6 40.2 62 -2.2 28.1 4.962 0.195
23:25 1013 29.91 842 24.86 4.5 40 62 -2.2 28 4.877 0.192
23:26 1013 29.91 842 24.86 4.4 39.9 62 -2.2 28 4.804 0.189
23:27 1013 29.91 842 24.86 4.4 39.9 62 -2.2 28.1 4.776 0.188
23:28 1013 29.91 842 24.86 4.3 39.7 63 -2.1 28.1 4.714 0.186
23:29 1013 29.91 842 24.86 4.2 39.6 64 -2.1 28.3 4.669 0.184
23:30 1013 29.91 842 24.86 4.1 39.4 64 -2 28.3 4.584 0.18
23:31 1013 29.91 842 24.86 4 39.2 65 -2 28.3 4.489 0.177
23:32 1013 29.91 842 24.86 4 39.1 65 -2.1 28.2 4.381 0.172
23:33 1013 29.91 842 24.86 3.9 39.1 65 -2.1 28.1 4.336 0.171
23:34 1013 29.91 842 24.86 3.9 39 64 -2.2 28.1 4.359 0.172
23:35 1013 29.91 842 24.86 3.9 39 64 -2.4 27.7 4.285 0.169
23:36 1013 29.91 842 24.86 3.9 39.1 63 -2.5 27.6 4.314 0.17
23:37 1013 29.91 842 24.86 3.9 39.1 63 -2.5 27.5 4.337 0.171
23:38 1013 29.91 842 24.86 3.9 39.1 63 -2.5 27.5 4.376 0.172
23:39 1013 29.91 842 24.86 4 39.1 63 -2.5 27.4 4.375 0.172
23:40 1013 29.91 842 24.86 4 39.2 63 -2.5 27.4 4.381 0.172
23:41 1013 29.91 842 24.86 4 39.1 62 -2.6 27.3 4.37 0.172
23:42 1013 29.91 842 24.86 4 39.2 62 -2.6 27.3 4.381 0.172
23:43 1013 29.91 842 24.86 4 39.2 62 -2.6 27.2 4.404 0.173
23:44 1013 29.91 842 24.86 4 39.3 62 -2.7 27.2 4.416 0.174
23:45 1013 29.91 842 24.86 4 39.3 62 -2.7 27.2 4.439 0.175
23:46 1013 29.91 842 24.86 4 39.3 62 -2.7 27.2 4.45 0.175
23:47 1013 29.91 842 24.86 4 39.3 61 -2.7 27.1 4.484 0.177
23:48 1013 29.91 842 24.86 4.1 39.3 61 -2.7 27.1 4.518 0.178
23:49 1012 29.88 842 24.86 4.1 39.4 61 -2.7 27.1 4.552 0.179
23:50 1012 29.88 842 24.86 4.1 39.4 60 -2.9 26.8 4.524 0.178
23:51 1012 29.88 842 24.86 4.2 39.6 59 -3 26.5 4.626 0.182
23:52 1012 29.88 842 24.86 4.5 40.1 58 -3.1 26.5 4.824 0.19
23:53 1012 29.88 842 24.86 4.7 40.4 58 -2.8 26.9 5.034 0.198
23:54 1012 29.88 842 24.86 4.8 40.6 58 -2.7 27.1 5.113 0.201
23:55 1012 29.88 842 24.86 4.7 40.5 58 -2.8 26.9 5.125 0.202
23:56 1012 29.88 842 24.86 4.7 40.4 58 -2.9 26.8 5.085 0.2
23:57 1012 29.88 842 24.86 4.7 40.4 58 -2.9 26.7 5.068 0.2
23:58 1012 29.88 842 24.86 4.7 40.4 58 -2.9 26.8 5.114 0.201
23:59 1012 29.88 842 24.86 4.7 40.4 58 -2.8 26.9 5.068 0.2
24:00 1012 29.88 842 24.86 4.6 40.3 59 -2.8 27 5.034 0.198